Brandt, Peter (2026): Master tracks in different resolutions of METEOR cruise M219, Recife - Emden, 2026-05-29 - 2026-06-28 [dataset]. GEOMAR - Helmholtz Centre for Ocean Research Kiel, PANGAEA, https://doi.pangaea.de/10.1594/PANGAEA.996839 (DOI registration in progress)
Always quote citation above when using data! You can download the citation in several formats below.
Published: 2026-08-24
Abstract:
Abstract: Raw data acquired by position sensors on board RV METEOR during expedition M219 were processed to receive a validated master track which can be used as reference of further expedition data. During M219 the motion reference unit Kongsberg SeaTex AS MRU-5 combined with Kongsberg SeaTex AS Seapath 320 and two SAAB R6 DGPS receiver were used as navigation sensors. Data were downloaded from Insightics Marine DSHIP Extraction (https://dship.o2a-data.de/) with a resolution of 1 sec. Processing and evaluation of the data is outlined in the data processing report. Processed data are provided as a master track with 1 sec resolution derived from the position sensors' data selected by priority and a generalized track with a reduced set of the most significant positions of the master track.
Other version:
Brandt, Peter (2026): Master track of METEOR cruise M219 in 1 sec resolution (zipped, 111 MB) [dataset]. GEOMAR - Helmholtz Centre for Ocean Research Kiel, PANGAEA, https://doi.pangaea.de/10.1594/PANGAEA.996840
Data processing report:
Further details:
Project(s):
AI BaseCamp - Helmholtz DataHub Earth & Environment (AI_BaseCamp)
DAM Marine Data - Research Vessels (DAM_ResearchVessels)
Funding:
Bundesministerium für
Forschung, Technologie und Raumfahrt (BMFTR), grant/award no. 03F1001E: Auf- und Ausbau Dateninfrastruktur und -management für Daten aus dem Betrieb deutscher Forschungsschiffe; Vorhaben: Bathymetrie-, Sedimentecholot-, Seismik- sowie weitere Unterwegs- und Forschungsmissionsdaten
Coverage:
Median Latitude: 14.456643 * Median Longitude: -21.438790 * South-bound Latitude: -11.500262 * West-bound Longitude: -35.903726 * North-bound Latitude: 53.677278 * East-bound Longitude: 6.821714
Date/Time Start: 2026-05-29T08:20:02 * Date/Time End: 2026-06-28T07:59:49
Event(s):
M219-track * Latitude Start: -8.057226 * Longitude Start: -34.868643 * Latitude End: 53.489128 * Longitude End: 6.821714 * Date/Time Start: 2026-05-29T08:00:02 * Date/Time End: 2026-06-28T07:59:49 * Campaign: M219 (WAVES) * Basis: Meteor (1986) * Method/Device: Underway cruise track measurements (CT) * Comment: Recife - Emden
Comment:
This dataset contains the master track in 10 min resolution, for other resolutions please see "Other version" references.
Parameter(s):
License:
Creative Commons Attribution 4.0 International (CC-BY-4.0)
Status:
Curation Level: Enhanced curation (CurationLevelC)
Size:
8638 data points
Data
| 1 Date/Time | 2 Latitude | 3 Longitude | 4 Speed [kn] | 5 Course [deg] |
|---|---|---|---|---|
| 2026-05-29T08:20 | -8.05723 | -34.86864 | 0.000 | 90.0 |
| 2026-05-29T08:30 | -8.05723 | -34.86864 | 0.001 | 296.6 |
| 2026-05-29T08:40 | -8.05723 | -34.86864 | 0.001 | 315.1 |
| 2026-05-29T08:50 | -8.05723 | -34.86865 | 0.001 | 315.1 |
| 2026-05-29T09:00 | -8.05723 | -34.86864 | 0.001 | 116.6 |
| 2026-05-29T09:10 | -8.05723 | -34.86864 | 0.000 | 0.0 |
| 2026-05-29T09:20 | -8.05723 | -34.86864 | 0.000 | 90.0 |
| 2026-05-29T09:30 | -8.05723 | -34.86864 | 0.001 | 270.0 |
| 2026-05-29T09:40 | -8.05723 | -34.86864 | 0.001 | 135.1 |
| 2026-05-29T09:50 | -8.05723 | -34.86864 | 0.000 | 90.0 |
| 2026-05-29T10:00 | -8.05723 | -34.86864 | 0.000 | 180.0 |
| 2026-05-29T10:10 | -8.05723 | -34.86864 | 0.001 | 296.6 |
| 2026-05-29T10:20 | -8.05722 | -34.86864 | 0.001 | 26.5 |
| 2026-05-29T10:30 | -8.05722 | -34.86864 | 0.001 | 315.1 |
| 2026-05-29T10:40 | -8.05722 | -34.86864 | 0.001 | 135.1 |
| 2026-05-29T10:50 | -8.05722 | -34.86864 | 0.000 | 270.0 |
| 2026-05-29T11:00 | -8.05722 | -34.86864 | 0.001 | 90.0 |
| 2026-05-29T11:10 | -8.05722 | -34.86864 | 0.000 | 0.0 |
| 2026-05-29T11:20 | -8.05722 | -34.86864 | 0.001 | 315.1 |
| 2026-05-29T11:30 | -8.05722 | -34.86864 | 0.000 | 0.0 |
| 2026-05-29T11:40 | -8.05722 | -34.86864 | 0.001 | 44.9 |
| 2026-05-29T11:50 | -8.05722 | -34.86864 | 0.001 | 270.0 |
| 2026-05-29T12:00 | -8.05722 | -34.86864 | 0.001 | 224.9 |
| 2026-05-29T12:10 | -8.05722 | -34.86864 | 0.000 | 90.0 |
| 2026-05-29T12:20 | -8.05722 | -34.86864 | 0.000 | 0.0 |
| 2026-05-29T12:30 | -8.05722 | -34.86864 | 0.001 | 0.0 |
| 2026-05-29T12:40 | -8.05722 | -34.86864 | 0.001 | 315.1 |
| 2026-05-29T12:50 | -8.05722 | -34.86864 | 0.000 | 0.0 |
| 2026-05-29T13:00 | -8.05722 | -34.86864 | 0.000 | 90.0 |
| 2026-05-29T13:10 | -8.05722 | -34.86864 | 0.001 | 26.5 |
| 2026-05-29T13:20 | -8.05722 | -34.86864 | 0.001 | 224.9 |
| 2026-05-29T13:30 | -8.05722 | -34.86864 | 0.001 | 75.9 |
| 2026-05-29T13:40 | -8.05722 | -34.86864 | 0.000 | 0.0 |
| 2026-05-29T13:50 | -8.05722 | -34.86864 | 0.001 | 243.4 |
| 2026-05-29T14:00 | -8.05722 | -34.86864 | 0.000 | 90.0 |
| 2026-05-29T14:10 | -8.05722 | -34.86864 | 0.001 | 224.9 |
| 2026-05-29T14:20 | -8.05722 | -34.86864 | 0.000 | 0.0 |
| 2026-05-29T14:30 | -8.05722 | -34.86864 | 0.000 | 180.0 |
| 2026-05-29T14:40 | -8.05722 | -34.86864 | 0.000 | 0.0 |
| 2026-05-29T14:50 | -8.05722 | -34.86864 | 0.000 | 270.0 |
| 2026-05-29T15:00 | -8.05722 | -34.86864 | 0.000 | 0.0 |
| 2026-05-29T15:10 | -8.05722 | -34.86864 | 0.000 | 180.0 |
| 2026-05-29T15:20 | -8.05722 | -34.86864 | 0.000 | 180.0 |
| 2026-05-29T15:30 | -8.05722 | -34.86864 | 0.001 | 315.1 |
| 2026-05-29T15:40 | -8.05722 | -34.86865 | 0.001 | 315.1 |
| 2026-05-29T15:50 | -8.05722 | -34.86864 | 0.001 | 90.0 |
| 2026-05-29T16:00 | -8.05722 | -34.86863 | 0.003 | 110.6 |
| 2026-05-29T16:10 | -8.05475 | -34.86709 | 1.043 | 31.8 |
| 2026-05-29T16:20 | -8.04590 | -34.85979 | 4.102 | 39.4 |
| 2026-05-29T16:30 | -8.05100 | -34.85580 | 2.318 | 142.0 |
| 2026-05-29T16:40 | -8.07054 | -34.84514 | 7.963 | 151.5 |
| 2026-05-29T16:50 | -8.08338 | -34.82006 | 10.065 | 117.2 |
| 2026-05-29T17:00 | -8.10808 | -34.81361 | 9.140 | 165.4 |
| 2026-05-29T17:10 | -8.13458 | -34.81150 | 9.521 | 175.5 |
| 2026-05-29T17:20 | -8.16027 | -34.80948 | 9.226 | 175.5 |
| 2026-05-29T17:30 | -8.18637 | -34.80742 | 9.377 | 175.5 |
| 2026-05-29T17:40 | -8.21278 | -34.80536 | 9.487 | 175.6 |
| 2026-05-29T17:50 | -8.24029 | -34.80319 | 9.883 | 175.5 |
| 2026-05-29T18:00 | -8.26790 | -34.80103 | 9.916 | 175.6 |
| 2026-05-29T18:10 | -8.29539 | -34.79887 | 9.875 | 175.5 |
| 2026-05-29T18:20 | -8.32239 | -34.79660 | 9.701 | 175.2 |
| 2026-05-29T18:30 | -8.34899 | -34.79456 | 9.554 | 175.6 |
| 2026-05-29T18:40 | -8.37554 | -34.79248 | 9.537 | 175.5 |
| 2026-05-29T18:50 | -8.40196 | -34.79048 | 9.488 | 175.7 |
| 2026-05-29T19:00 | -8.42826 | -34.78842 | 9.450 | 175.6 |
| 2026-05-29T19:10 | -8.45459 | -34.78636 | 9.455 | 175.5 |
| 2026-05-29T19:20 | -8.48146 | -34.78427 | 9.653 | 175.6 |
| 2026-05-29T19:30 | -8.50861 | -34.78214 | 9.751 | 175.5 |
| 2026-05-29T19:40 | -8.53603 | -34.78001 | 9.851 | 175.6 |
| 2026-05-29T19:50 | -8.56364 | -34.77787 | 9.916 | 175.6 |
| 2026-05-29T20:00 | -8.58593 | -34.77616 | 8.007 | 175.6 |
| 2026-05-29T20:10 | -8.60024 | -34.77506 | 5.139 | 175.6 |
| 2026-05-29T20:20 | -8.62586 | -34.77306 | 9.203 | 175.6 |
| 2026-05-29T20:30 | -8.65389 | -34.77090 | 10.068 | 175.6 |
| 2026-05-29T20:40 | -8.68129 | -34.76881 | 9.839 | 175.7 |
| 2026-05-29T20:50 | -8.70788 | -34.76672 | 9.553 | 175.5 |
| 2026-05-29T21:00 | -8.73413 | -34.76469 | 9.428 | 175.6 |
| 2026-05-29T21:10 | -8.76075 | -34.76264 | 9.561 | 175.6 |
| 2026-05-29T21:20 | -8.78748 | -34.76058 | 9.599 | 175.6 |
| 2026-05-29T21:30 | -8.81240 | -34.76521 | 9.077 | 190.5 |
| 2026-05-29T21:40 | -8.83513 | -34.77980 | 9.658 | 212.6 |
| 2026-05-29T21:50 | -8.85768 | -34.79428 | 9.582 | 212.6 |
| 2026-05-29T22:00 | -8.88150 | -34.80962 | 10.130 | 212.6 |
| 2026-05-29T22:10 | -8.90560 | -34.82515 | 10.252 | 212.7 |
| 2026-05-29T22:20 | -8.92918 | -34.84033 | 10.026 | 212.6 |
| 2026-05-29T22:30 | -8.95287 | -34.85558 | 10.074 | 212.6 |
| 2026-05-29T22:40 | -8.97687 | -34.87104 | 10.208 | 212.6 |
| 2026-05-29T22:50 | -9.00116 | -34.88667 | 10.327 | 212.6 |
| 2026-05-29T23:00 | -9.02568 | -34.90248 | 10.430 | 212.7 |
| 2026-05-29T23:10 | -9.05017 | -34.91825 | 10.412 | 212.6 |
| 2026-05-29T23:20 | -9.07436 | -34.93384 | 10.289 | 212.6 |
| 2026-05-29T23:30 | -9.09840 | -34.94933 | 10.223 | 212.6 |
| 2026-05-29T23:40 | -9.12312 | -34.96525 | 10.513 | 212.6 |
| 2026-05-29T23:50 | -9.14842 | -34.98157 | 10.761 | 212.7 |
| 2026-05-30T00:00 | -9.17375 | -34.99787 | 10.768 | 212.6 |
| 2026-05-30T00:10 | -9.19879 | -35.01401 | 10.649 | 212.6 |
| 2026-05-30T00:20 | -9.22341 | -35.02986 | 10.468 | 212.6 |
| 2026-05-30T00:30 | -9.24817 | -35.04583 | 10.532 | 212.7 |
| 2026-05-30T00:40 | -9.27291 | -35.06178 | 10.521 | 212.6 |
| 2026-05-30T00:50 | -9.29771 | -35.07776 | 10.544 | 212.6 |
| 2026-05-30T01:00 | -9.32256 | -35.09378 | 10.570 | 212.7 |
| 2026-05-30T01:10 | -9.34747 | -35.10983 | 10.592 | 212.6 |
| 2026-05-30T01:20 | -9.37238 | -35.12590 | 10.593 | 212.7 |
| 2026-05-30T01:30 | -9.39717 | -35.14187 | 10.541 | 212.6 |
| 2026-05-30T01:40 | -9.42194 | -35.15785 | 10.534 | 212.6 |
| 2026-05-30T01:50 | -9.44688 | -35.17392 | 10.607 | 212.6 |
| 2026-05-30T02:00 | -9.47165 | -35.18990 | 10.533 | 212.6 |
| 2026-05-30T02:10 | -9.49607 | -35.20565 | 10.383 | 212.6 |
| 2026-05-30T02:20 | -9.52076 | -35.22158 | 10.503 | 212.6 |
| 2026-05-30T02:30 | -9.54558 | -35.23760 | 10.555 | 212.6 |
| 2026-05-30T02:40 | -9.57026 | -35.25352 | 10.497 | 212.6 |
| 2026-05-30T02:50 | -9.59474 | -35.26929 | 10.404 | 212.6 |
| 2026-05-30T03:00 | -9.61925 | -35.28512 | 10.426 | 212.6 |
| 2026-05-30T03:10 | -9.64396 | -35.30106 | 10.509 | 212.6 |
| 2026-05-30T03:20 | -9.66849 | -35.31690 | 10.433 | 212.7 |
| 2026-05-30T03:30 | -9.69268 | -35.33250 | 10.285 | 212.6 |
| 2026-05-30T03:40 | -9.71679 | -35.34804 | 10.250 | 212.6 |
| 2026-05-30T03:50 | -9.74108 | -35.36372 | 10.331 | 212.6 |
| 2026-05-30T04:00 | -9.76513 | -35.37926 | 10.232 | 212.7 |
| 2026-05-30T04:10 | -9.78862 | -35.39443 | 9.988 | 212.6 |
| 2026-05-30T04:20 | -9.80846 | -35.41260 | 9.603 | 222.2 |
| 2026-05-30T04:30 | -9.82659 | -35.43333 | 9.816 | 228.6 |
| 2026-05-30T04:40 | -9.84494 | -35.45435 | 9.945 | 228.6 |
| 2026-05-30T04:50 | -9.86374 | -35.47589 | 10.193 | 228.7 |
| 2026-05-30T05:00 | -9.88252 | -35.49743 | 10.186 | 228.7 |
| 2026-05-30T05:10 | -9.90139 | -35.51902 | 10.221 | 228.6 |
| 2026-05-30T05:20 | -9.92013 | -35.54050 | 10.160 | 228.7 |
| 2026-05-30T05:30 | -9.93926 | -35.56237 | 10.355 | 228.6 |
| 2026-05-30T05:40 | -9.95824 | -35.58416 | 10.299 | 228.7 |
| 2026-05-30T05:50 | -9.97670 | -35.60532 | 10.008 | 228.7 |
| 2026-05-30T06:00 | -9.99543 | -35.62678 | 10.152 | 228.6 |
| 2026-05-30T06:10 | -10.01539 | -35.61917 | 7.641 | 159.3 |
| 2026-05-30T06:20 | -10.03380 | -35.63934 | 9.731 | 227.3 |
| 2026-05-30T06:30 | -10.05148 | -35.66219 | 10.292 | 232.0 |
| 2026-05-30T06:40 | -10.06959 | -35.68553 | 10.521 | 231.9 |
| 2026-05-30T06:50 | -10.08741 | -35.70861 | 10.381 | 232.1 |
| 2026-05-30T07:00 | -10.10513 | -35.73146 | 10.300 | 231.9 |
| 2026-05-30T07:10 | -10.12308 | -35.75466 | 10.445 | 232.0 |
| 2026-05-30T07:20 | -10.14135 | -35.77823 | 10.620 | 231.9 |
| 2026-05-30T07:30 | -10.15952 | -35.80173 | 10.578 | 232.0 |
| 2026-05-30T07:40 | -10.17780 | -35.82535 | 10.634 | 232.0 |
| 2026-05-30T07:50 | -10.19634 | -35.84936 | 10.803 | 232.1 |
| 2026-05-30T08:00 | -10.21498 | -35.87339 | 10.828 | 231.9 |
| 2026-05-30T08:10 | -10.23077 | -35.89901 | 10.706 | 238.1 |
| 2026-05-30T08:20 | -10.23662 | -35.90315 | 2.559 | 215.0 |
| 2026-05-30T08:30 | -10.23666 | -35.90319 | 0.017 | 227.2 |
| 2026-05-30T08:40 | -10.23665 | -35.90314 | 0.017 | 87.5 |
| 2026-05-30T08:50 | -10.23232 | -35.89633 | 2.872 | 57.3 |
| 2026-05-30T09:00 | -10.22552 | -35.88728 | 4.032 | 52.8 |
| 2026-05-30T09:10 | -10.22144 | -35.88156 | 2.497 | 54.3 |
| 2026-05-30T09:20 | -10.22185 | -35.88143 | 0.152 | 161.8 |
| 2026-05-30T09:30 | -10.22512 | -35.87403 | 2.873 | 114.1 |
| 2026-05-30T09:40 | -10.22840 | -35.86514 | 3.367 | 110.4 |
| 2026-05-30T09:50 | -10.23001 | -35.86090 | 1.611 | 110.9 |
| 2026-05-30T10:00 | -10.23000 | -35.86089 | 0.003 | 31.8 |
| 2026-05-30T10:10 | -10.23001 | -35.86090 | 0.006 | 222.2 |
| 2026-05-30T10:20 | -10.23001 | -35.86089 | 0.003 | 82.8 |
| 2026-05-30T10:30 | -10.23000 | -35.86077 | 0.044 | 83.5 |
| 2026-05-30T10:40 | -10.22575 | -35.85915 | 1.624 | 20.7 |
| 2026-05-30T10:50 | -10.22545 | -35.86098 | 0.657 | 279.6 |
| 2026-05-30T11:00 | -10.23350 | -35.86062 | 2.886 | 177.5 |
| 2026-05-30T11:10 | -10.23313 | -35.86158 | 0.368 | 291.0 |
| 2026-05-30T11:20 | -10.23313 | -35.86157 | 0.006 | 93.2 |
| 2026-05-30T11:30 | -10.23313 | -35.86154 | 0.009 | 82.8 |
| 2026-05-30T11:40 | -10.23566 | -35.85962 | 1.135 | 143.1 |
| 2026-05-30T11:50 | -10.24545 | -35.85107 | 4.636 | 139.1 |
| 2026-05-30T12:00 | -10.24461 | -35.85140 | 0.325 | 339.1 |
| 2026-05-30T12:10 | -10.24591 | -35.85097 | 0.489 | 161.9 |
| 2026-05-30T12:20 | -10.25595 | -35.85307 | 3.675 | 191.7 |
| 2026-05-30T12:30 | -10.26423 | -35.86878 | 6.315 | 242.0 |
| 2026-05-30T12:40 | -10.26152 | -35.86654 | 1.257 | 39.4 |
| 2026-05-30T12:50 | -10.26316 | -35.86525 | 0.743 | 142.2 |
| 2026-05-30T13:00 | -10.26324 | -35.86208 | 1.128 | 91.6 |
| 2026-05-30T13:10 | -10.26232 | -35.85922 | 1.066 | 71.8 |
| 2026-05-30T13:20 | -10.26140 | -35.85932 | 0.331 | 354.0 |
| 2026-05-30T13:30 | -10.25935 | -35.86042 | 0.831 | 332.0 |
| 2026-05-30T13:40 | -10.25702 | -35.86113 | 0.870 | 343.1 |
| 2026-05-30T13:50 | -10.25453 | -35.86186 | 0.929 | 343.8 |
| 2026-05-30T14:00 | -10.25965 | -35.85082 | 4.325 | 115.1 |
| 2026-05-30T14:10 | -10.27485 | -35.83038 | 9.067 | 126.9 |
| 2026-05-30T14:20 | -10.29050 | -35.80930 | 9.345 | 126.9 |
| 2026-05-30T14:30 | -10.30670 | -35.78755 | 9.654 | 127.0 |
| 2026-05-30T14:40 | -10.32308 | -35.76560 | 9.748 | 127.0 |
| 2026-05-30T14:50 | -10.33943 | -35.74364 | 9.744 | 126.9 |
| 2026-05-30T15:00 | -10.35492 | -35.72064 | 9.862 | 124.2 |
| 2026-05-30T15:10 | -10.36833 | -35.69568 | 10.073 | 118.5 |
| 2026-05-30T15:20 | -10.37542 | -35.68224 | 5.398 | 118.0 |
| 2026-05-30T15:30 | -10.37526 | -35.68180 | 0.165 | 70.7 |
| 2026-05-30T15:40 | -10.37361 | -35.68003 | 0.863 | 46.8 |
| 2026-05-30T15:50 | -10.36923 | -35.67629 | 2.055 | 40.2 |
| 2026-05-30T16:00 | -10.36868 | -35.67162 | 1.669 | 83.2 |
| 2026-05-30T16:10 | -10.36618 | -35.66942 | 1.187 | 41.0 |
| 2026-05-30T16:20 | -10.36289 | -35.66617 | 1.647 | 44.4 |
| 2026-05-30T16:30 | -10.35953 | -35.66301 | 1.646 | 43.0 |
| 2026-05-30T16:40 | -10.35737 | -35.66095 | 1.062 | 43.2 |
| 2026-05-30T16:50 | -10.35465 | -35.65871 | 1.258 | 39.2 |
| 2026-05-30T17:00 | -10.35169 | -35.65637 | 1.344 | 38.2 |
| 2026-05-30T17:10 | -10.34862 | -35.65409 | 1.366 | 36.2 |
| 2026-05-30T17:20 | -10.34486 | -35.65253 | 1.455 | 22.4 |
| 2026-05-30T17:30 | -10.34113 | -35.65149 | 1.388 | 15.4 |
| 2026-05-30T17:40 | -10.34051 | -35.64439 | 2.527 | 85.0 |
| 2026-05-30T17:50 | -10.36259 | -35.63033 | 9.348 | 147.8 |
| 2026-05-30T18:00 | -10.38802 | -35.61730 | 10.215 | 153.1 |
| 2026-05-30T18:10 | -10.41343 | -35.60427 | 10.204 | 153.1 |
| 2026-05-30T18:20 | -10.43834 | -35.59025 | 10.214 | 150.9 |
| 2026-05-30T18:30 | -10.45444 | -35.58254 | 6.382 | 154.6 |
| 2026-05-30T18:40 | -10.45614 | -35.58146 | 0.718 | 147.9 |
| 2026-05-30T18:50 | -10.45662 | -35.58167 | 0.189 | 202.7 |
| 2026-05-30T19:00 | -10.45662 | -35.58165 | 0.004 | 79.6 |
| 2026-05-30T19:10 | -10.45662 | -35.58165 | 0.003 | 69.2 |
| 2026-05-30T19:20 | -10.45662 | -35.58167 | 0.007 | 257.4 |
| 2026-05-30T19:30 | -10.45662 | -35.58166 | 0.003 | 90.0 |
| 2026-05-30T19:40 | -10.45661 | -35.58179 | 0.047 | 275.2 |
| 2026-05-30T19:50 | -10.45654 | -35.58183 | 0.031 | 331.9 |
| 2026-05-30T20:00 | -10.45651 | -35.58186 | 0.015 | 306.6 |
| 2026-05-30T20:10 | -10.45653 | -35.58185 | 0.008 | 152.5 |
| 2026-05-30T20:20 | -10.45654 | -35.58185 | 0.003 | 188.1 |
| 2026-05-30T20:30 | -10.45653 | -35.58186 | 0.004 | 311.5 |
| 2026-05-30T20:40 | -10.45653 | -35.58186 | 0.002 | 135.3 |
| 2026-05-30T20:50 | -10.45652 | -35.58185 | 0.003 | 35.3 |
| 2026-05-30T21:00 | -10.45654 | -35.58186 | 0.004 | 214.7 |
| 2026-05-30T21:10 | -10.45654 | -35.58185 | 0.006 | 112.0 |
| 2026-05-30T21:20 | -10.45653 | -35.58187 | 0.010 | 302.3 |
| 2026-05-30T21:30 | -10.45653 | -35.58185 | 0.007 | 107.7 |
| 2026-05-30T21:40 | -10.45654 | -35.58186 | 0.003 | 224.7 |
| 2026-05-30T21:50 | -10.45654 | -35.58185 | 0.001 | 56.0 |
| 2026-05-30T22:00 | -10.45654 | -35.58185 | 0.003 | 148.3 |
| 2026-05-30T22:10 | -10.45402 | -35.58348 | 1.071 | 327.4 |
| 2026-05-30T22:20 | -10.44447 | -35.59730 | 5.977 | 304.9 |
| 2026-05-30T22:30 | -10.42620 | -35.62078 | 10.590 | 308.2 |
| 2026-05-30T22:40 | -10.40656 | -35.64595 | 11.362 | 308.2 |
| 2026-05-30T22:50 | -10.38697 | -35.67103 | 11.328 | 308.3 |
| 2026-05-30T23:00 | -10.37900 | -35.67943 | 4.125 | 313.8 |
| 2026-05-30T23:10 | -10.37982 | -35.67981 | 0.323 | 204.7 |
| 2026-05-30T23:20 | -10.37985 | -35.67978 | 0.013 | 126.5 |
| 2026-05-30T23:30 | -10.37985 | -35.67977 | 0.005 | 132.3 |
| 2026-05-30T23:40 | -10.37983 | -35.67978 | 0.009 | 337.6 |
| 2026-05-30T23:50 | -10.37984 | -35.67977 | 0.005 | 132.6 |
| 2026-05-31T00:00 | -10.37985 | -35.67978 | 0.004 | 195.1 |
| 2026-05-31T00:10 | -10.37985 | -35.67977 | 0.000 | 44.7 |
| 2026-05-31T00:20 | -10.37985 | -35.67979 | 0.005 | 278.2 |
| 2026-05-31T00:30 | -10.37984 | -35.67979 | 0.002 | 315.3 |
| 2026-05-31T00:40 | -10.37986 | -35.67978 | 0.007 | 143.4 |
| 2026-05-31T00:50 | -10.37984 | -35.67976 | 0.010 | 43.3 |
| 2026-05-31T01:00 | -10.37984 | -35.67979 | 0.010 | 259.4 |
| 2026-05-31T01:10 | -10.37983 | -35.67979 | 0.007 | 0.0 |
| 2026-05-31T01:20 | -10.37402 | -35.68940 | 3.992 | 301.4 |
| 2026-05-31T01:30 | -10.36023 | -35.71172 | 9.330 | 302.0 |
| 2026-05-31T01:40 | -10.34608 | -35.73445 | 9.521 | 302.2 |
| 2026-05-31T01:50 | -10.33054 | -35.75659 | 9.625 | 305.3 |
| 2026-05-31T02:00 | -10.32493 | -35.76697 | 4.193 | 298.7 |
| 2026-05-31T02:10 | -10.32480 | -35.76735 | 0.142 | 288.3 |
| 2026-05-31T02:20 | -10.32486 | -35.76731 | 0.025 | 148.9 |
| 2026-05-31T02:30 | -10.32487 | -35.76732 | 0.001 | 213.4 |
| 2026-05-31T02:40 | -10.32488 | -35.76731 | 0.005 | 147.8 |
| 2026-05-31T02:50 | -10.32488 | -35.76731 | 0.003 | 188.1 |
| 2026-05-31T03:00 | -10.32487 | -35.76732 | 0.008 | 320.8 |
| 2026-05-31T03:10 | -10.32488 | -35.76731 | 0.007 | 145.8 |
| 2026-05-31T03:20 | -10.32487 | -35.76731 | 0.007 | 23.8 |
| 2026-05-31T03:30 | -10.32275 | -35.76895 | 0.957 | 322.4 |
| 2026-05-31T03:40 | -10.31313 | -35.78540 | 6.774 | 300.6 |
| 2026-05-31T03:50 | -10.29869 | -35.80893 | 9.820 | 301.8 |
| 2026-05-31T04:00 | -10.28253 | -35.83524 | 10.979 | 301.8 |
| 2026-05-31T04:10 | -10.26556 | -35.85877 | 10.326 | 306.1 |
| 2026-05-31T04:20 | -10.26709 | -35.86191 | 1.240 | 243.8 |
| 2026-05-31T04:30 | -10.26708 | -35.86192 | 0.005 | 303.9 |
| 2026-05-31T04:40 | -10.26708 | -35.86192 | 0.001 | 90.0 |
| 2026-05-31T04:50 | -10.26706 | -35.86191 | 0.005 | 19.5 |
| 2026-05-31T05:00 | -10.26707 | -35.86192 | 0.005 | 227.7 |
| 2026-05-31T05:10 | -10.26707 | -35.86193 | 0.002 | 270.0 |
| 2026-05-31T05:20 | -10.26467 | -35.85905 | 1.334 | 49.8 |
| 2026-05-31T05:30 | -10.25542 | -35.87380 | 6.191 | 302.4 |
| 2026-05-31T05:40 | -10.25350 | -35.87848 | 1.797 | 292.5 |
| 2026-05-31T05:50 | -10.25417 | -35.87703 | 0.567 | 115.1 |
| 2026-05-31T06:00 | -10.25447 | -35.87698 | 0.109 | 170.3 |
| 2026-05-31T06:10 | -10.25448 | -35.87693 | 0.017 | 98.4 |
| 2026-05-31T06:20 | -10.25450 | -35.87689 | 0.015 | 116.8 |
| 2026-05-31T06:30 | -10.25463 | -35.87633 | 0.203 | 102.8 |
| 2026-05-31T06:40 | -10.24434 | -35.88748 | 5.405 | 313.0 |
| 2026-05-31T06:50 | -10.24292 | -35.89287 | 1.980 | 284.9 |
| 2026-05-31T07:00 | -10.24290 | -35.89285 | 0.013 | 50.3 |
| 2026-05-31T07:10 | -10.24289 | -35.89283 | 0.007 | 83.9 |
| 2026-05-31T07:20 | -10.24290 | -35.89286 | 0.012 | 259.3 |
| 2026-05-31T07:30 | -10.24253 | -35.89301 | 0.142 | 337.8 |
| 2026-05-31T07:40 | -10.23796 | -35.90063 | 3.162 | 301.2 |
| 2026-05-31T07:50 | -10.23657 | -35.90373 | 1.206 | 294.4 |
| 2026-05-31T08:00 | -10.23662 | -35.90328 | 0.158 | 97.6 |
| 2026-05-31T08:10 | -10.23661 | -35.90327 | 0.007 | 40.6 |
| 2026-05-31T08:20 | -10.23662 | -35.90327 | 0.005 | 153.7 |
| 2026-05-31T08:30 | -10.23658 | -35.90312 | 0.055 | 76.7 |
| 2026-05-31T08:40 | -10.23703 | -35.89907 | 1.444 | 96.3 |
| 2026-05-31T08:50 | -10.23795 | -35.89113 | 2.836 | 96.7 |
| 2026-05-31T09:00 | -10.23969 | -35.88378 | 2.680 | 103.5 |
| 2026-05-31T09:10 | -10.25110 | -35.87356 | 5.463 | 138.4 |
| 2026-05-31T09:20 | -10.26349 | -35.86368 | 5.654 | 141.7 |
| 2026-05-31T09:30 | -10.26736 | -35.86118 | 1.648 | 147.3 |
| 2026-05-31T09:40 | -10.27106 | -35.85919 | 1.499 | 152.0 |
| 2026-05-31T09:50 | -10.27502 | -35.85729 | 1.571 | 154.5 |
| 2026-05-31T10:00 | -10.27900 | -35.85547 | 1.566 | 155.7 |
| 2026-05-31T10:10 | -10.28470 | -35.85421 | 2.088 | 167.6 |
| 2026-05-31T10:20 | -10.28164 | -35.86514 | 4.028 | 285.8 |
| 2026-05-31T10:30 | -10.26430 | -35.87273 | 6.770 | 336.6 |
| 2026-05-31T10:40 | -10.24691 | -35.88041 | 6.798 | 336.4 |
| 2026-05-31T10:50 | -10.23938 | -35.87592 | 3.134 | 30.6 |
| 2026-05-31T11:00 | -10.24432 | -35.87255 | 2.137 | 146.0 |
| 2026-05-31T11:10 | -10.24476 | -35.87231 | 0.179 | 151.4 |
| 2026-05-31T11:20 | -10.24836 | -35.87056 | 1.431 | 154.4 |
| 2026-05-31T11:30 | -10.25147 | -35.86903 | 1.239 | 154.0 |
| 2026-05-31T11:40 | -10.25518 | -35.86719 | 1.479 | 153.9 |
| 2026-05-31T11:50 | -10.25905 | -35.86534 | 1.533 | 154.7 |
| 2026-05-31T12:00 | -10.26327 | -35.86327 | 1.683 | 154.1 |
| 2026-05-31T12:10 | -10.26712 | -35.86144 | 1.521 | 154.8 |
| 2026-05-31T12:20 | -10.27021 | -35.85778 | 1.707 | 130.5 |
| 2026-05-31T12:30 | -10.27743 | -35.84512 | 5.181 | 119.9 |
| 2026-05-31T12:40 | -10.28272 | -35.84126 | 2.338 | 144.1 |
| 2026-05-31T12:50 | -10.27820 | -35.82959 | 4.445 | 68.7 |
| 2026-05-31T13:00 | -10.27765 | -35.82814 | 0.549 | 69.0 |
| 2026-05-31T13:10 | -10.27907 | -35.82539 | 1.098 | 117.4 |
| 2026-05-31T13:20 | -10.29129 | -35.80971 | 7.079 | 128.2 |
| 2026-05-31T13:30 | -10.30551 | -35.79119 | 8.312 | 127.8 |
| 2026-05-31T13:40 | -10.31941 | -35.77312 | 8.117 | 127.8 |
| 2026-05-31T13:50 | -10.33185 | -35.75653 | 7.378 | 127.1 |
| 2026-05-31T14:00 | -10.33690 | -35.74829 | 3.438 | 121.7 |
| 2026-05-31T14:10 | -10.33711 | -35.73822 | 3.572 | 91.2 |
| 2026-05-31T14:20 | -10.33069 | -35.72733 | 4.495 | 59.2 |
| 2026-05-31T14:30 | -10.32812 | -35.72403 | 1.487 | 51.9 |
| 2026-05-31T14:40 | -10.32946 | -35.72016 | 1.451 | 109.2 |
| 2026-05-31T14:50 | -10.33432 | -35.71673 | 2.123 | 145.1 |
| 2026-05-31T15:00 | -10.34420 | -35.72516 | 4.634 | 220.2 |
| 2026-05-31T15:10 | -10.35250 | -35.73433 | 4.405 | 227.6 |
| 2026-05-31T15:20 | -10.35326 | -35.73364 | 0.365 | 137.9 |
| 2026-05-31T15:30 | -10.35451 | -35.73187 | 0.772 | 125.5 |
| 2026-05-31T15:40 | -10.35632 | -35.72821 | 1.451 | 116.5 |
| 2026-05-31T15:50 | -10.35816 | -35.72451 | 1.468 | 116.8 |
| 2026-05-31T16:00 | -10.36006 | -35.72073 | 1.502 | 116.8 |
| 2026-05-31T16:10 | -10.36193 | -35.71695 | 1.499 | 116.5 |
| 2026-05-31T16:20 | -10.36381 | -35.71318 | 1.498 | 116.8 |
| 2026-05-31T16:30 | -10.36568 | -35.70940 | 1.497 | 116.5 |
| 2026-05-31T16:40 | -10.36757 | -35.70562 | 1.502 | 116.8 |
| 2026-05-31T16:50 | -10.36945 | -35.70184 | 1.500 | 116.7 |
| 2026-05-31T17:00 | -10.37154 | -35.69772 | 1.640 | 117.1 |
| 2026-05-31T17:10 | -10.37378 | -35.69333 | 1.752 | 117.2 |
| 2026-05-31T17:20 | -10.37598 | -35.68907 | 1.705 | 117.5 |
| 2026-05-31T17:30 | -10.37823 | -35.68482 | 1.708 | 118.1 |
| 2026-05-31T17:40 | -10.38078 | -35.68080 | 1.693 | 122.7 |
| 2026-05-31T17:50 | -10.38299 | -35.67663 | 1.677 | 118.2 |
| 2026-05-31T18:00 | -10.38552 | -35.66878 | 2.928 | 108.0 |
| 2026-05-31T18:10 | -10.40187 | -35.64948 | 9.005 | 130.6 |
| 2026-05-31T18:20 | -10.42166 | -35.62586 | 10.972 | 130.2 |
| 2026-05-31T18:30 | -10.44136 | -35.60215 | 10.976 | 130.0 |
| 2026-05-31T18:40 | -10.46120 | -35.57828 | 11.050 | 130.0 |
| 2026-05-31T18:50 | -10.47828 | -35.55281 | 10.905 | 124.1 |
| 2026-05-31T19:00 | -10.48336 | -35.55002 | 2.070 | 151.5 |
| 2026-05-31T19:10 | -10.48337 | -35.55001 | 0.005 | 132.6 |
| 2026-05-31T19:20 | -10.48927 | -35.54161 | 3.653 | 125.4 |
| 2026-05-31T19:30 | -10.50646 | -35.52118 | 9.504 | 130.4 |
| 2026-05-31T19:40 | -10.52460 | -35.49899 | 10.203 | 129.6 |
| 2026-05-31T19:50 | -10.53168 | -35.49027 | 3.997 | 129.4 |
| 2026-05-31T20:00 | -10.53327 | -35.48814 | 0.945 | 127.1 |
| 2026-05-31T20:10 | -10.53329 | -35.48816 | 0.009 | 219.2 |
| 2026-05-31T20:20 | -10.53315 | -35.48833 | 0.081 | 310.1 |
| 2026-05-31T20:30 | -10.53314 | -35.48835 | 0.005 | 296.8 |
| 2026-05-31T20:40 | -10.53315 | -35.48833 | 0.008 | 126.1 |
| 2026-05-31T20:50 | -10.53314 | -35.48835 | 0.007 | 301.7 |
| 2026-05-31T21:00 | -10.53315 | -35.48835 | 0.004 | 199.8 |
| 2026-05-31T21:10 | -10.53314 | -35.48835 | 0.003 | 339.6 |
| 2026-05-31T21:20 | -10.53314 | -35.48835 | 0.000 | 90.0 |
| 2026-05-31T21:30 | -10.53315 | -35.48836 | 0.002 | 243.2 |
| 2026-05-31T21:40 | -10.53315 | -35.48835 | 0.004 | 80.4 |
| 2026-05-31T21:50 | -10.53315 | -35.48834 | 0.002 | 90.0 |
| 2026-05-31T22:00 | -10.53315 | -35.48835 | 0.003 | 246.6 |
| 2026-05-31T22:10 | -10.53318 | -35.48847 | 0.046 | 253.9 |
| 2026-05-31T22:20 | -10.53762 | -35.48273 | 2.582 | 128.0 |
| 2026-05-31T22:30 | -10.54792 | -35.46885 | 6.147 | 126.9 |
| 2026-05-31T22:40 | -10.55889 | -35.45438 | 6.461 | 127.5 |
| 2026-05-31T22:50 | -10.57815 | -35.43244 | 10.393 | 131.6 |
| 2026-05-31T23:00 | -10.59797 | -35.40783 | 11.245 | 129.2 |
| 2026-05-31T23:10 | -10.61775 | -35.38320 | 11.242 | 129.1 |
| 2026-05-31T23:20 | -10.63718 | -35.35902 | 11.035 | 129.1 |
| 2026-05-31T23:30 | -10.65619 | -35.33535 | 10.802 | 129.1 |
| 2026-05-31T23:40 | -10.67535 | -35.31151 | 10.883 | 129.1 |
| 2026-05-31T23:50 | -10.68888 | -35.29168 | 8.532 | 124.6 |
| 2026-06-01T00:00 | -10.68927 | -35.29401 | 0.836 | 260.4 |
| 2026-06-01T00:10 | -10.68933 | -35.29393 | 0.037 | 127.9 |
| 2026-06-01T00:20 | -10.68933 | -35.29393 | 0.001 | 180.0 |
| 2026-06-01T00:30 | -10.68933 | -35.29393 | 0.002 | 270.0 |
| 2026-06-01T00:40 | -10.68933 | -35.29392 | 0.006 | 58.8 |
| 2026-06-01T00:50 | -10.68934 | -35.29393 | 0.007 | 236.8 |
| 2026-06-01T01:00 | -10.68932 | -35.29395 | 0.007 | 317.4 |
| 2026-06-01T01:10 | -10.68933 | -35.29393 | 0.008 | 121.2 |
| 2026-06-01T01:20 | -10.68934 | -35.29393 | 0.003 | 180.0 |
| 2026-06-01T01:30 | -10.68933 | -35.29394 | 0.007 | 317.3 |
| 2026-06-01T01:40 | -10.68934 | -35.29395 | 0.005 | 224.7 |
| 2026-06-01T01:50 | -10.68934 | -35.29396 | 0.003 | 229.9 |
| 2026-06-01T02:00 | -10.68934 | -35.29393 | 0.009 | 76.9 |
| 2026-06-01T02:10 | -10.68933 | -35.29393 | 0.003 | 44.7 |
| 2026-06-01T02:20 | -10.68934 | -35.29395 | 0.007 | 253.1 |
| 2026-06-01T02:30 | -10.68933 | -35.29394 | 0.004 | 15.1 |
| 2026-06-01T02:40 | -10.69567 | -35.28642 | 3.500 | 130.4 |
| 2026-06-01T02:50 | -10.71346 | -35.26515 | 9.869 | 130.2 |
| 2026-06-01T03:00 | -10.73266 | -35.24209 | 10.678 | 130.1 |
| 2026-06-01T03:10 | -10.75214 | -35.21875 | 10.817 | 130.2 |
| 2026-06-01T03:20 | -10.75997 | -35.19176 | 9.962 | 106.4 |
| 2026-06-01T03:30 | -10.77984 | -35.16982 | 10.538 | 132.5 |
| 2026-06-01T03:40 | -10.80129 | -35.14849 | 10.773 | 135.5 |
| 2026-06-01T03:50 | -10.82272 | -35.12738 | 10.713 | 135.8 |
| 2026-06-01T04:00 | -10.84357 | -35.10580 | 10.684 | 134.3 |
| 2026-06-01T04:10 | -10.85633 | -35.09322 | 6.382 | 135.7 |
| 2026-06-01T04:20 | -10.85701 | -35.09354 | 0.267 | 205.0 |
| 2026-06-01T04:30 | -10.85700 | -35.09350 | 0.013 | 77.3 |
| 2026-06-01T04:40 | -10.85701 | -35.09347 | 0.012 | 95.2 |
| 2026-06-01T04:50 | -10.85700 | -35.09347 | 0.003 | 8.0 |
| 2026-06-01T05:00 | -10.85700 | -35.09349 | 0.006 | 273.2 |
| 2026-06-01T05:10 | -10.85701 | -35.09347 | 0.005 | 124.0 |
| 2026-06-01T05:20 | -10.85701 | -35.09348 | 0.002 | 281.4 |
| 2026-06-01T05:30 | -10.85701 | -35.09349 | 0.005 | 237.2 |
| 2026-06-01T05:40 | -10.85701 | -35.09348 | 0.004 | 90.0 |
| 2026-06-01T05:50 | -10.85701 | -35.09348 | 0.000 | 270.0 |
| 2026-06-01T06:00 | -10.85700 | -35.09348 | 0.003 | 0.0 |
| 2026-06-01T06:10 | -10.85701 | -35.09349 | 0.002 | 251.4 |
| 2026-06-01T06:20 | -10.85700 | -35.09347 | 0.006 | 71.4 |
| 2026-06-01T06:30 | -10.85700 | -35.09347 | 0.000 | 270.0 |
| 2026-06-01T06:40 | -10.85701 | -35.09352 | 0.016 | 254.6 |
| 2026-06-01T06:50 | -10.85710 | -35.09350 | 0.031 | 168.3 |
| 2026-06-01T07:00 | -10.86850 | -35.07912 | 6.527 | 128.7 |
| 2026-06-01T07:10 | -10.88710 | -35.05671 | 10.358 | 130.0 |
| 2026-06-01T07:20 | -10.89999 | -35.04111 | 7.198 | 129.9 |
| 2026-06-01T07:30 | -10.91242 | -35.02609 | 6.936 | 129.9 |
| 2026-06-01T07:40 | -10.92512 | -35.01081 | 7.067 | 130.1 |
| 2026-06-01T07:50 | -10.93479 | -34.99953 | 5.283 | 130.9 |
| 2026-06-01T08:00 | -10.93683 | -34.99741 | 1.051 | 134.3 |
| 2026-06-01T08:10 | -10.93639 | -34.99673 | 0.286 | 56.6 |
| 2026-06-01T08:20 | -10.93381 | -34.99662 | 0.928 | 2.5 |
| 2026-06-01T08:30 | -10.93351 | -34.99583 | 0.299 | 69.2 |
| 2026-06-01T08:40 | -10.93351 | -34.99583 | 0.002 | 281.4 |
| 2026-06-01T08:50 | -10.93456 | -34.99541 | 0.406 | 158.6 |
| 2026-06-01T09:00 | -10.93447 | -34.99577 | 0.132 | 284.9 |
| 2026-06-01T09:10 | -10.93425 | -34.99661 | 0.308 | 284.7 |
| 2026-06-01T09:20 | -10.93685 | -34.99492 | 1.106 | 147.2 |
| 2026-06-01T09:30 | -10.93978 | -34.99262 | 1.330 | 142.1 |
| 2026-06-01T09:40 | -10.93956 | -34.99236 | 0.119 | 48.2 |
| 2026-06-01T09:50 | -10.93826 | -34.99170 | 0.521 | 26.8 |
| 2026-06-01T10:00 | -10.93690 | -34.99095 | 0.555 | 28.7 |
| 2026-06-01T10:10 | -10.93579 | -34.99030 | 0.460 | 29.9 |
| 2026-06-01T10:20 | -10.93416 | -34.98991 | 0.599 | 13.3 |
| 2026-06-01T10:30 | -10.93272 | -34.98951 | 0.535 | 15.1 |
| 2026-06-01T10:40 | -10.93116 | -34.98912 | 0.577 | 14.2 |
| 2026-06-01T10:50 | -10.92956 | -34.98869 | 0.592 | 14.7 |
| 2026-06-01T11:00 | -10.92796 | -34.98824 | 0.595 | 15.5 |
| 2026-06-01T11:10 | -10.92651 | -34.98787 | 0.534 | 14.1 |
| 2026-06-01T11:20 | -10.92522 | -34.98750 | 0.481 | 16.1 |
| 2026-06-01T11:30 | -10.92384 | -34.98713 | 0.511 | 14.7 |
| 2026-06-01T11:40 | -10.92256 | -34.98682 | 0.471 | 13.6 |
| 2026-06-01T11:50 | -10.92205 | -34.98668 | 0.190 | 14.7 |
| 2026-06-01T12:00 | -10.92177 | -34.98660 | 0.103 | 15.6 |
| 2026-06-01T12:10 | -10.92141 | -34.98650 | 0.134 | 16.1 |
| 2026-06-01T12:20 | -10.92122 | -34.98643 | 0.075 | 18.8 |
| 2026-06-01T12:30 | -10.92078 | -34.98637 | 0.156 | 7.4 |
| 2026-06-01T12:40 | -10.91949 | -34.98637 | 0.464 | 0.3 |
| 2026-06-01T12:50 | -10.91799 | -34.98638 | 0.536 | 359.4 |
| 2026-06-01T13:00 | -10.91643 | -34.98637 | 0.559 | 0.4 |
| 2026-06-01T13:10 | -10.91457 | -34.98671 | 0.677 | 349.9 |
| 2026-06-01T13:20 | -10.90299 | -35.00045 | 6.392 | 310.5 |
| 2026-06-01T13:30 | -10.88429 | -35.02568 | 11.164 | 306.9 |
| 2026-06-01T13:40 | -10.86498 | -35.05157 | 11.484 | 307.0 |
| 2026-06-01T13:50 | -10.84565 | -35.07755 | 11.510 | 307.0 |
| 2026-06-01T14:00 | -10.82645 | -35.10333 | 11.428 | 307.0 |
| 2026-06-01T14:10 | -10.80732 | -35.12906 | 11.402 | 306.9 |
| 2026-06-01T14:20 | -10.78824 | -35.15465 | 11.351 | 307.0 |
| 2026-06-01T14:30 | -10.76906 | -35.18037 | 11.406 | 307.0 |
| 2026-06-01T14:40 | -10.74985 | -35.20616 | 11.436 | 307.0 |
| 2026-06-01T14:50 | -10.73064 | -35.23190 | 11.420 | 307.0 |
| 2026-06-01T15:00 | -10.71146 | -35.25766 | 11.422 | 307.0 |
| 2026-06-01T15:10 | -10.69223 | -35.28351 | 11.459 | 306.9 |
| 2026-06-01T15:20 | -10.67302 | -35.30928 | 11.431 | 307.0 |
| 2026-06-01T15:30 | -10.65388 | -35.33500 | 11.403 | 307.0 |
| 2026-06-01T15:40 | -10.63476 | -35.36064 | 11.375 | 307.0 |
| 2026-06-01T15:50 | -10.61789 | -35.38778 | 11.358 | 302.1 |
| 2026-06-01T16:00 | -10.60682 | -35.39963 | 5.774 | 313.4 |
| 2026-06-01T16:10 | -10.60743 | -35.39810 | 0.585 | 112.1 |
| 2026-06-01T16:20 | -10.60689 | -35.39915 | 0.422 | 297.6 |
| 2026-06-01T16:30 | -10.60811 | -35.39886 | 0.451 | 166.7 |
| 2026-06-01T16:40 | -10.61293 | -35.39542 | 2.111 | 144.8 |
| 2026-06-01T16:50 | -10.61409 | -35.39653 | 0.571 | 223.3 |
| 2026-06-01T17:00 | -10.61322 | -35.39472 | 0.712 | 64.1 |
| 2026-06-01T17:10 | -10.60642 | -35.39487 | 2.436 | 358.8 |
| 2026-06-01T17:20 | -10.60814 | -35.39289 | 0.934 | 131.4 |
| 2026-06-01T17:30 | -10.60668 | -35.39088 | 0.883 | 53.6 |
| 2026-06-01T17:40 | -10.60524 | -35.38920 | 0.790 | 49.2 |
| 2026-06-01T17:50 | -10.60549 | -35.38746 | 0.620 | 98.4 |
| 2026-06-01T18:00 | -10.60522 | -35.38623 | 0.449 | 77.4 |
| 2026-06-01T18:10 | -10.60425 | -35.38590 | 0.368 | 18.5 |
| 2026-06-01T18:20 | -10.60381 | -35.38481 | 0.417 | 67.7 |
| 2026-06-01T18:30 | -10.60283 | -35.38358 | 0.560 | 51.3 |
| 2026-06-01T18:40 | -10.60105 | -35.38249 | 0.745 | 31.1 |
| 2026-06-01T18:50 | -10.59980 | -35.38148 | 0.571 | 38.8 |
| 2026-06-01T19:00 | -10.59880 | -35.38000 | 0.636 | 55.5 |
| 2026-06-01T19:10 | -10.59772 | -35.37859 | 0.634 | 52.3 |
| 2026-06-01T19:20 | -10.59662 | -35.37719 | 0.633 | 51.6 |
| 2026-06-01T19:30 | -10.59551 | -35.37585 | 0.618 | 49.8 |
| 2026-06-01T19:40 | -10.59431 | -35.37443 | 0.661 | 49.5 |
| 2026-06-01T19:50 | -10.59306 | -35.37289 | 0.706 | 50.9 |
| 2026-06-01T20:00 | -10.59182 | -35.37134 | 0.707 | 50.9 |
| 2026-06-01T20:10 | -10.59051 | -35.36972 | 0.740 | 50.7 |
| 2026-06-01T20:20 | -10.58925 | -35.36831 | 0.673 | 48.1 |
| 2026-06-01T20:30 | -10.59311 | -35.37245 | 2.015 | 226.7 |
| 2026-06-01T20:40 | -10.60317 | -35.38507 | 5.740 | 231.1 |
| 2026-06-01T20:50 | -10.60917 | -35.39240 | 3.375 | 230.4 |
| 2026-06-01T21:00 | -10.60836 | -35.39335 | 0.443 | 310.9 |
| 2026-06-01T21:10 | -10.60839 | -35.39330 | 0.020 | 117.7 |
| 2026-06-01T21:20 | -10.60840 | -35.39329 | 0.004 | 139.1 |
| 2026-06-01T21:30 | -10.60839 | -35.39332 | 0.009 | 272.4 |
| 2026-06-01T21:40 | -10.60840 | -35.39332 | 0.002 | 189.4 |
| 2026-06-01T21:50 | -10.60838 | -35.39332 | 0.007 | 2.8 |
| 2026-06-01T22:00 | -10.60840 | -35.39330 | 0.009 | 127.2 |
| 2026-06-01T22:10 | -10.60840 | -35.39331 | 0.005 | 266.1 |
| 2026-06-01T22:20 | -10.60838 | -35.39330 | 0.007 | 22.2 |
| 2026-06-01T22:30 | -10.60838 | -35.39331 | 0.003 | 282.7 |
| 2026-06-01T22:40 | -10.60839 | -35.39329 | 0.008 | 112.0 |
| 2026-06-01T22:50 | -10.60839 | -35.39330 | 0.005 | 237.2 |
| 2026-06-01T23:00 | -10.60840 | -35.39330 | 0.005 | 138.3 |
| 2026-06-01T23:10 | -10.60840 | -35.39331 | 0.005 | 298.6 |
| 2026-06-01T23:20 | -10.60843 | -35.39329 | 0.014 | 146.7 |
| 2026-06-01T23:30 | -10.60839 | -35.39330 | 0.014 | 347.9 |
| 2026-06-01T23:40 | -10.60839 | -35.39330 | 0.002 | 191.2 |
| 2026-06-01T23:50 | -10.60838 | -35.39330 | 0.006 | 349.5 |
| 2026-06-02T00:00 | -10.60838 | -35.39330 | 0.001 | 206.3 |
| 2026-06-02T00:10 | -10.60839 | -35.39331 | 0.004 | 213.4 |
| 2026-06-02T00:20 | -10.60839 | -35.39332 | 0.007 | 254.3 |
| 2026-06-02T00:30 | -10.61153 | -35.39347 | 1.123 | 182.6 |
| 2026-06-02T00:40 | -10.62419 | -35.37643 | 7.550 | 126.9 |
| 2026-06-02T00:50 | -10.64234 | -35.35209 | 10.800 | 127.0 |
| 2026-06-02T01:00 | -10.66158 | -35.32874 | 10.766 | 129.8 |
| 2026-06-02T01:10 | -10.68091 | -35.30529 | 10.815 | 129.8 |
| 2026-06-02T01:20 | -10.70015 | -35.28197 | 10.756 | 129.8 |
| 2026-06-02T01:30 | -10.71936 | -35.25868 | 10.745 | 129.8 |
| 2026-06-02T01:40 | -10.73851 | -35.23548 | 10.700 | 129.8 |
| 2026-06-02T01:50 | -10.75752 | -35.21234 | 10.657 | 129.7 |
| 2026-06-02T02:00 | -10.77474 | -35.19156 | 9.601 | 130.0 |
| 2026-06-02T02:10 | -10.78708 | -35.17691 | 6.815 | 130.4 |
| 2026-06-02T02:20 | -10.79844 | -35.16369 | 6.204 | 131.0 |
| 2026-06-02T02:30 | -10.80983 | -35.15041 | 6.226 | 130.9 |
| 2026-06-02T02:40 | -10.82118 | -35.13726 | 6.178 | 131.1 |
| 2026-06-02T02:50 | -10.83253 | -35.12398 | 6.218 | 130.9 |
| 2026-06-02T03:00 | -10.84388 | -35.11075 | 6.202 | 130.9 |
| 2026-06-02T03:10 | -10.85511 | -35.09776 | 6.110 | 131.2 |
| 2026-06-02T03:20 | -10.86658 | -35.08438 | 6.270 | 130.9 |
| 2026-06-02T03:30 | -10.87809 | -35.07099 | 6.283 | 131.0 |
| 2026-06-02T03:40 | -10.88118 | -35.05518 | 5.705 | 101.2 |
| 2026-06-02T03:50 | -10.88970 | -35.04154 | 5.713 | 122.3 |
| 2026-06-02T04:00 | -10.90299 | -35.02981 | 6.314 | 138.9 |
| 2026-06-02T04:10 | -10.91623 | -35.01817 | 6.283 | 139.0 |
| 2026-06-02T04:20 | -10.92958 | -35.00639 | 6.344 | 138.9 |
| 2026-06-02T04:30 | -10.93750 | -34.99970 | 3.697 | 140.2 |
| 2026-06-02T04:40 | -10.93856 | -34.99796 | 0.723 | 121.5 |
| 2026-06-02T04:50 | -10.93964 | -34.99416 | 1.400 | 106.0 |
| 2026-06-02T05:00 | -10.93984 | -34.99365 | 0.196 | 112.2 |
| 2026-06-02T05:10 | -10.93984 | -34.99357 | 0.027 | 83.2 |
| 2026-06-02T05:20 | -10.94003 | -34.99311 | 0.178 | 113.5 |
| 2026-06-02T05:30 | -10.94004 | -34.99309 | 0.007 | 121.7 |
| 2026-06-02T05:40 | -10.94004 | -34.99308 | 0.003 | 96.4 |
| 2026-06-02T05:50 | -10.94004 | -34.99308 | 0.001 | 296.8 |
| 2026-06-02T06:00 | -10.94004 | -34.99309 | 0.001 | 270.0 |
| 2026-06-02T06:10 | -10.94004 | -34.99309 | 0.003 | 300.0 |
| 2026-06-02T06:20 | -10.94003 | -34.99307 | 0.010 | 66.8 |
| 2026-06-02T06:30 | -10.94003 | -34.99309 | 0.008 | 255.2 |
| 2026-06-02T06:40 | -10.94003 | -34.99307 | 0.007 | 73.1 |
| 2026-06-02T06:50 | -10.94004 | -34.99309 | 0.008 | 236.7 |
| 2026-06-02T07:00 | -10.94004 | -34.99308 | 0.005 | 98.2 |
| 2026-06-02T07:10 | -10.94005 | -34.99306 | 0.007 | 119.3 |
| 2026-06-02T07:20 | -10.94006 | -34.99306 | 0.002 | 224.7 |
| 2026-06-02T07:30 | -10.94006 | -34.99304 | 0.007 | 99.1 |
| 2026-06-02T07:40 | -10.94006 | -34.99305 | 0.002 | 288.6 |
| 2026-06-02T07:50 | -10.94006 | -34.99305 | 0.001 | 75.8 |
| 2026-06-02T08:00 | -10.94004 | -34.99306 | 0.007 | 315.3 |
| 2026-06-02T08:10 | -10.94006 | -34.99307 | 0.006 | 212.4 |
| 2026-06-02T08:20 | -10.94006 | -34.99305 | 0.008 | 84.7 |
| 2026-06-02T08:30 | -10.94005 | -34.99294 | 0.036 | 87.7 |
| 2026-06-02T08:40 | -10.94261 | -34.99121 | 1.102 | 146.2 |
| 2026-06-02T08:50 | -10.94566 | -34.98913 | 1.317 | 145.9 |
| 2026-06-02T09:00 | -10.93949 | -34.98323 | 3.039 | 43.4 |
| 2026-06-02T09:10 | -10.91616 | -35.00247 | 10.778 | 320.8 |
| 2026-06-02T09:20 | -10.89326 | -35.02436 | 11.283 | 316.6 |
| 2026-06-02T09:30 | -10.87099 | -35.04679 | 11.253 | 315.1 |
| 2026-06-02T09:40 | -10.86899 | -35.04518 | 0.916 | 38.3 |
| 2026-06-02T09:50 | -10.86957 | -35.04430 | 0.376 | 123.7 |
| 2026-06-02T10:00 | -10.87173 | -35.04271 | 0.957 | 144.0 |
| 2026-06-02T10:10 | -10.87426 | -35.04094 | 1.103 | 145.3 |
| 2026-06-02T10:20 | -10.87736 | -35.03874 | 1.355 | 144.9 |
| 2026-06-02T10:30 | -10.87958 | -35.03716 | 0.973 | 144.9 |
| 2026-06-02T10:40 | -10.88182 | -35.03560 | 0.974 | 145.3 |
| 2026-06-02T10:50 | -10.88404 | -35.03403 | 0.972 | 145.1 |
| 2026-06-02T11:00 | -10.88626 | -35.03246 | 0.970 | 145.1 |
| 2026-06-02T11:10 | -10.88848 | -35.03088 | 0.973 | 144.9 |
| 2026-06-02T11:20 | -10.89070 | -35.02930 | 0.970 | 144.9 |
| 2026-06-02T11:30 | -10.89292 | -35.02774 | 0.968 | 145.2 |
| 2026-06-02T11:40 | -10.89515 | -35.02617 | 0.974 | 145.0 |
| 2026-06-02T11:50 | -10.89736 | -35.02459 | 0.969 | 144.8 |
| 2026-06-02T12:00 | -10.89973 | -35.02292 | 1.035 | 145.2 |
| 2026-06-02T12:10 | -10.90239 | -35.02101 | 1.167 | 144.8 |
| 2026-06-02T12:20 | -10.90505 | -35.01914 | 1.162 | 145.2 |
| 2026-06-02T12:30 | -10.90772 | -35.01725 | 1.168 | 144.9 |
| 2026-06-02T12:40 | -10.91038 | -35.01538 | 1.158 | 145.3 |
| 2026-06-02T12:50 | -10.91306 | -35.01346 | 1.176 | 144.7 |
| 2026-06-02T13:00 | -10.91602 | -35.01136 | 1.296 | 145.0 |
| 2026-06-02T13:10 | -10.91957 | -35.00885 | 1.550 | 145.0 |
| 2026-06-02T13:20 | -10.92313 | -35.00633 | 1.557 | 145.0 |
| 2026-06-02T13:30 | -10.92668 | -35.00382 | 1.551 | 145.1 |
| 2026-06-02T13:40 | -10.93024 | -35.00130 | 1.555 | 145.0 |
| 2026-06-02T13:50 | -10.93379 | -34.99878 | 1.553 | 144.9 |
| 2026-06-02T14:00 | -10.93735 | -34.99626 | 1.556 | 145.1 |
| 2026-06-02T14:10 | -10.94090 | -34.99376 | 1.551 | 145.1 |
| 2026-06-02T14:20 | -10.94408 | -34.99182 | 1.328 | 148.9 |
| 2026-06-02T14:30 | -10.92886 | -35.00603 | 7.417 | 317.3 |
| 2026-06-02T14:40 | -10.92577 | -34.99892 | 2.748 | 66.3 |
| 2026-06-02T14:50 | -10.92674 | -34.99531 | 1.325 | 105.1 |
| 2026-06-02T15:00 | -10.90855 | -35.01865 | 10.522 | 308.2 |
| 2026-06-02T15:10 | -10.88825 | -35.04410 | 11.576 | 308.9 |
| 2026-06-02T15:20 | -10.86787 | -35.06954 | 11.594 | 309.0 |
| 2026-06-02T15:30 | -10.84766 | -35.09480 | 11.504 | 309.0 |
| 2026-06-02T15:40 | -10.82741 | -35.12012 | 11.533 | 309.0 |
| 2026-06-02T15:50 | -10.80710 | -35.14554 | 11.573 | 308.9 |
| 2026-06-02T16:00 | -10.78678 | -35.17087 | 11.549 | 309.1 |
| 2026-06-02T16:10 | -10.76660 | -35.19616 | 11.510 | 308.9 |
| 2026-06-02T16:20 | -10.74638 | -35.22146 | 11.521 | 308.9 |
| 2026-06-02T16:30 | -10.72622 | -35.24662 | 11.469 | 309.0 |
| 2026-06-02T16:40 | -10.70610 | -35.27186 | 11.482 | 308.9 |
| 2026-06-02T16:50 | -10.68588 | -35.29714 | 11.520 | 309.0 |
| 2026-06-02T17:00 | -10.66544 | -35.32249 | 11.584 | 309.2 |
| 2026-06-02T17:10 | -10.64486 | -35.34814 | 11.701 | 309.1 |
| 2026-06-02T17:20 | -10.62418 | -35.37349 | 11.641 | 309.5 |
| 2026-06-02T17:30 | -10.59775 | -35.39274 | 11.668 | 324.2 |
| 2026-06-02T17:40 | -10.57107 | -35.41148 | 11.638 | 325.2 |
| 2026-06-02T17:50 | -10.56190 | -35.41962 | 4.371 | 318.7 |
| 2026-06-02T18:00 | -10.56403 | -35.41711 | 1.173 | 130.6 |
| 2026-06-02T18:10 | -10.56646 | -35.41411 | 1.373 | 129.4 |
| 2026-06-02T18:20 | -10.56643 | -35.42609 | 4.246 | 270.1 |
| 2026-06-02T18:30 | -10.56584 | -35.44559 | 6.912 | 271.8 |
| 2026-06-02T18:40 | -10.56807 | -35.44360 | 1.062 | 138.5 |
| 2026-06-02T18:50 | -10.57019 | -35.44057 | 1.317 | 125.2 |
| 2026-06-02T19:00 | -10.57276 | -35.43774 | 1.363 | 132.7 |
| 2026-06-02T19:10 | -10.57533 | -35.43488 | 1.366 | 132.2 |
| 2026-06-02T19:20 | -10.57757 | -35.43221 | 1.243 | 130.3 |
| 2026-06-02T19:30 | -10.57991 | -35.42955 | 1.258 | 131.6 |
| 2026-06-02T19:40 | -10.58244 | -35.42697 | 1.288 | 134.7 |
| 2026-06-02T19:50 | -10.58440 | -35.42419 | 1.211 | 125.4 |
| 2026-06-02T20:00 | -10.58619 | -35.42156 | 1.131 | 124.6 |
| 2026-06-02T20:10 | -10.58813 | -35.41895 | 1.159 | 126.9 |
| 2026-06-02T20:20 | -10.59006 | -35.41638 | 1.142 | 127.2 |
| 2026-06-02T20:30 | -10.59255 | -35.41371 | 1.300 | 133.3 |
| 2026-06-02T20:40 | -10.59496 | -35.41079 | 1.348 | 129.9 |
| 2026-06-02T20:50 | -10.59716 | -35.40768 | 1.354 | 125.5 |
| 2026-06-02T21:00 | -10.60039 | -35.40393 | 1.762 | 131.1 |
| 2026-06-02T21:10 | -10.60400 | -35.39971 | 1.977 | 130.9 |
| 2026-06-02T21:20 | -10.60744 | -35.39586 | 1.838 | 132.1 |
| 2026-06-02T21:30 | -10.61083 | -35.39169 | 1.915 | 129.4 |
| 2026-06-02T21:40 | -10.61510 | -35.38686 | 2.294 | 131.8 |
| 2026-06-02T21:50 | -10.62604 | -35.37602 | 5.487 | 135.6 |
| 2026-06-02T22:00 | -10.64322 | -35.35550 | 9.524 | 130.2 |
| 2026-06-02T22:10 | -10.66180 | -35.33317 | 10.340 | 130.1 |
| 2026-06-02T22:20 | -10.68036 | -35.31089 | 10.317 | 130.1 |
| 2026-06-02T22:30 | -10.69875 | -35.28872 | 10.251 | 130.0 |
| 2026-06-02T22:40 | -10.71739 | -35.26625 | 10.386 | 130.0 |
| 2026-06-02T22:50 | -10.73626 | -35.24349 | 10.522 | 130.0 |
| 2026-06-02T23:00 | -10.75502 | -35.22082 | 10.470 | 129.9 |
| 2026-06-02T23:10 | -10.77055 | -35.19944 | 9.393 | 126.3 |
| 2026-06-02T23:20 | -10.77273 | -35.19349 | 2.248 | 110.3 |
| 2026-06-02T23:30 | -10.77281 | -35.19339 | 0.044 | 129.5 |
| 2026-06-02T23:40 | -10.77282 | -35.19340 | 0.006 | 232.1 |
| 2026-06-02T23:50 | -10.77282 | -35.19339 | 0.006 | 100.1 |
| 2026-06-03T00:00 | -10.77282 | -35.19338 | 0.003 | 33.4 |
| 2026-06-03T00:10 | -10.77282 | -35.19339 | 0.005 | 227.7 |
| 2026-06-03T00:20 | -10.77281 | -35.19340 | 0.005 | 312.6 |
| 2026-06-03T00:30 | -10.77282 | -35.19340 | 0.004 | 174.3 |
| 2026-06-03T00:40 | -10.77282 | -35.19340 | 0.004 | 28.8 |
| 2026-06-03T00:50 | -10.77282 | -35.19340 | 0.001 | 236.0 |
| 2026-06-03T01:00 | -10.77282 | -35.19340 | 0.001 | 166.1 |
| 2026-06-03T01:10 | -10.77281 | -35.19339 | 0.006 | 51.5 |
| 2026-06-03T01:20 | -10.77281 | -35.19339 | 0.002 | 206.3 |
| 2026-06-03T01:30 | -10.77282 | -35.19340 | 0.004 | 243.2 |
| 2026-06-03T01:40 | -10.77281 | -35.19339 | 0.004 | 48.5 |
| 2026-06-03T01:50 | -10.77335 | -35.19365 | 0.213 | 205.2 |
| 2026-06-03T02:00 | -10.78170 | -35.18557 | 4.137 | 136.3 |
| 2026-06-03T02:10 | -10.79413 | -35.16649 | 8.091 | 123.4 |
| 2026-06-03T02:20 | -10.81161 | -35.14330 | 10.330 | 127.3 |
| 2026-06-03T02:30 | -10.82910 | -35.12045 | 10.229 | 127.8 |
| 2026-06-03T02:40 | -10.84645 | -35.09777 | 10.153 | 127.7 |
| 2026-06-03T02:50 | -10.86399 | -35.07487 | 10.260 | 127.8 |
| 2026-06-03T03:00 | -10.88163 | -35.05184 | 10.314 | 127.8 |
| 2026-06-03T03:10 | -10.89921 | -35.02888 | 10.282 | 127.8 |
| 2026-06-03T03:20 | -10.90340 | -35.00209 | 9.599 | 99.0 |
| 2026-06-03T03:30 | -10.92001 | -34.97905 | 10.094 | 126.1 |
| 2026-06-03T03:40 | -10.93853 | -34.95653 | 10.371 | 129.8 |
| 2026-06-03T03:50 | -10.95683 | -34.93434 | 10.231 | 129.8 |
| 2026-06-03T04:00 | -10.97542 | -34.91178 | 10.395 | 129.8 |
| 2026-06-03T04:10 | -10.99422 | -34.88915 | 10.465 | 130.1 |
| 2026-06-03T04:20 | -11.01303 | -34.86653 | 10.461 | 130.1 |
| 2026-06-03T04:30 | -11.03212 | -34.84347 | 10.643 | 130.0 |
| 2026-06-03T04:40 | -11.05097 | -34.82057 | 10.549 | 129.8 |
| 2026-06-03T04:50 | -11.06993 | -34.79771 | 10.560 | 130.0 |
| 2026-06-03T05:00 | -11.08872 | -34.77514 | 10.442 | 130.1 |
| 2026-06-03T05:10 | -11.10765 | -34.75219 | 10.577 | 129.9 |
| 2026-06-03T05:20 | -11.12461 | -34.73283 | 9.155 | 131.6 |
| 2026-06-03T05:30 | -11.12650 | -34.73161 | 0.803 | 147.5 |
| 2026-06-03T05:40 | -11.12652 | -34.73165 | 0.016 | 245.5 |
| 2026-06-03T05:50 | -11.12650 | -34.73164 | 0.008 | 37.1 |
| 2026-06-03T06:00 | -11.12650 | -34.73163 | 0.002 | 90.0 |
| 2026-06-03T06:10 | -11.12651 | -34.73161 | 0.010 | 115.0 |
| 2026-06-03T06:20 | -11.12649 | -34.73160 | 0.007 | 8.4 |
| 2026-06-03T06:30 | -11.12650 | -34.73161 | 0.004 | 224.6 |
| 2026-06-03T06:40 | -11.12651 | -34.73163 | 0.007 | 228.7 |
| 2026-06-03T06:50 | -11.12649 | -34.73162 | 0.008 | 24.0 |
| 2026-06-03T07:00 | -11.12650 | -34.73161 | 0.003 | 139.8 |
| 2026-06-03T07:10 | -11.12650 | -34.73161 | 0.001 | 33.4 |
| 2026-06-03T07:20 | -11.12650 | -34.73161 | 0.002 | 189.3 |
| 2026-06-03T07:30 | -11.12650 | -34.73161 | 0.001 | 270.0 |
| 2026-06-03T07:40 | -11.12650 | -34.73160 | 0.004 | 68.0 |
| 2026-06-03T07:50 | -11.12650 | -34.73161 | 0.002 | 238.7 |
| 2026-06-03T08:00 | -11.12648 | -34.73159 | 0.010 | 32.8 |
| 2026-06-03T08:10 | -11.12813 | -34.72998 | 0.820 | 136.0 |
| 2026-06-03T08:20 | -11.13700 | -34.71720 | 5.526 | 125.1 |
| 2026-06-03T08:30 | -11.15339 | -34.69426 | 10.017 | 125.9 |
| 2026-06-03T08:40 | -11.17033 | -34.67051 | 10.363 | 125.8 |
| 2026-06-03T08:50 | -11.18729 | -34.64674 | 10.371 | 125.8 |
| 2026-06-03T09:00 | -11.20429 | -34.62288 | 10.404 | 125.8 |
| 2026-06-03T09:10 | -11.22111 | -34.59932 | 10.281 | 125.9 |
| 2026-06-03T09:20 | -11.23806 | -34.57552 | 10.379 | 125.8 |
| 2026-06-03T09:30 | -11.25498 | -34.55180 | 10.345 | 125.9 |
| 2026-06-03T09:40 | -11.27186 | -34.52814 | 10.322 | 125.8 |
| 2026-06-03T09:50 | -11.28883 | -34.50433 | 10.382 | 125.8 |
| 2026-06-03T10:00 | -11.30578 | -34.48053 | 10.378 | 125.8 |
| 2026-06-03T10:10 | -11.31312 | -34.47027 | 4.477 | 126.0 |
| 2026-06-03T10:20 | -11.31320 | -34.47013 | 0.059 | 121.4 |
| 2026-06-03T10:30 | -11.31320 | -34.47012 | 0.003 | 54.1 |
| 2026-06-03T10:40 | -11.31319 | -34.47011 | 0.005 | 57.2 |
| 2026-06-03T10:50 | -11.31320 | -34.47013 | 0.007 | 247.3 |
| 2026-06-03T11:00 | -11.31320 | -34.47013 | 0.001 | 18.2 |
| 2026-06-03T11:10 | -11.31319 | -34.47012 | 0.003 | 69.2 |
| 2026-06-03T11:20 | -11.31319 | -34.47013 | 0.002 | 270.0 |
| 2026-06-03T11:30 | -11.31320 | -34.47012 | 0.005 | 132.7 |
| 2026-06-03T11:40 | -11.31321 | -34.47012 | 0.003 | 224.6 |
| 2026-06-03T11:50 | -11.31320 | -34.47011 | 0.003 | 57.6 |
| 2026-06-03T12:00 | -11.31320 | -34.47012 | 0.004 | 348.8 |
| 2026-06-03T12:10 | -11.31319 | -34.47013 | 0.004 | 284.2 |
| 2026-06-03T12:20 | -11.31321 | -34.47013 | 0.007 | 198.2 |
| 2026-06-03T12:30 | -11.31321 | -34.47014 | 0.002 | 281.5 |
| 2026-06-03T12:40 | -11.31321 | -34.47013 | 0.004 | 85.2 |
| 2026-06-03T12:50 | -11.31321 | -34.47013 | 0.002 | 292.1 |
| 2026-06-03T13:00 | -11.31320 | -34.47012 | 0.004 | 54.6 |
| 2026-06-03T13:10 | -11.31517 | -34.46992 | 0.710 | 174.2 |
| 2026-06-03T13:20 | -11.32211 | -34.45852 | 4.734 | 121.7 |
| 2026-06-03T13:30 | -11.33672 | -34.43822 | 8.881 | 126.1 |
| 2026-06-03T13:40 | -11.35411 | -34.41463 | 10.407 | 126.8 |
| 2026-06-03T13:50 | -11.37146 | -34.39110 | 10.384 | 126.8 |
| 2026-06-03T14:00 | -11.38875 | -34.36764 | 10.349 | 126.8 |
| 2026-06-03T14:10 | -11.40594 | -34.34431 | 10.288 | 126.8 |
| 2026-06-03T14:20 | -11.42302 | -34.32113 | 10.223 | 126.8 |
| 2026-06-03T14:30 | -11.44028 | -34.29773 | 10.324 | 126.8 |
| 2026-06-03T14:40 | -11.45782 | -34.27390 | 10.508 | 126.7 |
| 2026-06-03T14:50 | -11.47505 | -34.25052 | 10.310 | 126.8 |
| 2026-06-03T15:00 | -11.49108 | -34.22604 | 10.378 | 123.6 |
| 2026-06-03T15:10 | -11.50026 | -34.21762 | 4.437 | 137.9 |
| 2026-06-03T15:20 | -11.49989 | -34.21716 | 0.210 | 50.0 |
| 2026-06-03T15:30 | -11.49975 | -34.21704 | 0.067 | 41.6 |
| 2026-06-03T15:40 | -11.49974 | -34.21702 | 0.006 | 64.7 |
| 2026-06-03T15:50 | -11.49975 | -34.21703 | 0.003 | 220.2 |
| 2026-06-03T16:00 | -11.49969 | -34.21698 | 0.024 | 38.7 |
| 2026-06-03T16:10 | -11.49971 | -34.21700 | 0.007 | 224.6 |
| 2026-06-03T16:20 | -11.49970 | -34.21699 | 0.004 | 41.2 |
| 2026-06-03T16:30 | -11.49971 | -34.21702 | 0.011 | 246.5 |
| 2026-06-03T16:40 | -11.49972 | -34.21701 | 0.004 | 132.0 |
| 2026-06-03T16:50 | -11.49970 | -34.21702 | 0.006 | 339.7 |
| 2026-06-03T17:00 | -11.49973 | -34.21702 | 0.009 | 191.2 |
| 2026-06-03T17:10 | -11.49972 | -34.21701 | 0.005 | 67.1 |
| 2026-06-03T17:20 | -11.49972 | -34.21701 | 0.003 | 8.0 |
| 2026-06-03T17:30 | -11.49972 | -34.21701 | 0.003 | 261.8 |
| 2026-06-03T17:40 | -11.49972 | -34.21701 | 0.003 | 180.0 |
| 2026-06-03T17:50 | -11.49973 | -34.21701 | 0.002 | 135.4 |
| 2026-06-03T18:00 | -11.49972 | -34.21701 | 0.004 | 10.2 |
| 2026-06-03T18:10 | -11.49975 | -34.21705 | 0.019 | 226.1 |
| 2026-06-03T18:20 | -11.49975 | -34.21703 | 0.007 | 77.3 |
| 2026-06-03T18:30 | -11.49974 | -34.21703 | 0.004 | 16.5 |
| 2026-06-03T18:40 | -11.50004 | -34.21281 | 1.492 | 94.1 |
| 2026-06-03T18:50 | -11.50009 | -34.19215 | 7.299 | 90.2 |
| 2026-06-03T19:00 | -11.49998 | -34.16334 | 10.178 | 89.8 |
| 2026-06-03T19:10 | -11.49998 | -34.13427 | 10.268 | 90.0 |
| 2026-06-03T19:20 | -11.49998 | -34.10489 | 10.380 | 90.0 |
| 2026-06-03T19:30 | -11.49999 | -34.07514 | 10.509 | 90.0 |
| 2026-06-03T19:40 | -11.49999 | -34.04551 | 10.466 | 90.0 |
| 2026-06-03T19:50 | -11.49999 | -34.01548 | 10.608 | 90.0 |
| 2026-06-03T20:00 | -11.49998 | -33.98533 | 10.652 | 90.0 |
| 2026-06-03T20:10 | -11.49999 | -33.95587 | 10.407 | 90.0 |
| 2026-06-03T20:20 | -11.49998 | -33.92636 | 10.425 | 90.0 |
| 2026-06-03T20:30 | -11.49997 | -33.89715 | 10.317 | 90.0 |
| 2026-06-03T20:40 | -11.50003 | -33.88417 | 4.586 | 90.3 |
| 2026-06-03T20:50 | -11.49995 | -33.88397 | 0.077 | 66.9 |
| 2026-06-03T21:00 | -11.49973 | -33.88347 | 0.193 | 66.7 |
| 2026-06-03T21:10 | -11.49997 | -33.88326 | 0.113 | 139.0 |
| 2026-06-03T21:20 | -11.49995 | -33.88323 | 0.011 | 54.9 |
| 2026-06-03T21:30 | -11.49997 | -33.88327 | 0.015 | 249.7 |
| 2026-06-03T21:40 | -11.49996 | -33.88327 | 0.003 | 57.6 |
| 2026-06-03T21:50 | -11.49997 | -33.88327 | 0.004 | 235.9 |
| 2026-06-03T22:00 | -11.49997 | -33.88327 | 0.001 | 44.6 |
| 2026-06-03T22:10 | -11.49997 | -33.88328 | 0.004 | 270.0 |
| 2026-06-03T22:20 | -11.49997 | -33.88330 | 0.005 | 248.1 |
| 2026-06-03T22:30 | -11.49996 | -33.88328 | 0.007 | 44.8 |
| 2026-06-03T22:40 | -11.49997 | -33.88328 | 0.004 | 173.4 |
| 2026-06-03T22:50 | -11.49995 | -33.88330 | 0.009 | 310.5 |
| 2026-06-03T23:00 | -11.49997 | -33.88329 | 0.007 | 141.3 |
| 2026-06-03T23:10 | -11.49998 | -33.88329 | 0.003 | 177.1 |
| 2026-06-03T23:20 | -11.49996 | -33.88328 | 0.006 | 33.3 |
| 2026-06-03T23:30 | -11.49996 | -33.88328 | 0.002 | 206.2 |
| 2026-06-03T23:40 | -11.49995 | -33.88329 | 0.004 | 346.1 |
| 2026-06-03T23:50 | -11.49997 | -33.88328 | 0.005 | 163.1 |
| 2026-06-04T00:00 | -11.49998 | -33.88330 | 0.006 | 235.9 |
| 2026-06-04T00:10 | -11.49996 | -33.88329 | 0.007 | 20.0 |
| 2026-06-04T00:20 | -11.49995 | -33.88327 | 0.005 | 73.8 |
| 2026-06-04T00:30 | -11.49996 | -33.88329 | 0.007 | 232.8 |
| 2026-06-04T00:40 | -11.50021 | -33.88336 | 0.090 | 195.4 |
| 2026-06-04T00:50 | -11.49999 | -33.87276 | 3.746 | 88.8 |
| 2026-06-04T01:00 | -11.49997 | -33.84498 | 9.814 | 90.0 |
| 2026-06-04T01:10 | -11.49998 | -33.81592 | 10.266 | 90.0 |
| 2026-06-04T01:20 | -11.49998 | -33.78690 | 10.250 | 90.0 |
| 2026-06-04T01:30 | -11.50000 | -33.75815 | 10.157 | 90.0 |
| 2026-06-04T01:40 | -11.49999 | -33.72963 | 10.076 | 90.0 |
| 2026-06-04T01:50 | -11.49997 | -33.70071 | 10.216 | 90.0 |
| 2026-06-04T02:00 | -11.49998 | -33.67148 | 10.326 | 90.0 |
| 2026-06-04T02:10 | -11.49998 | -33.64219 | 10.347 | 90.0 |
| 2026-06-04T02:20 | -11.49998 | -33.61280 | 10.383 | 90.0 |
| 2026-06-04T02:30 | -11.49998 | -33.58325 | 10.438 | 90.0 |
| 2026-06-04T02:40 | -11.49994 | -33.55613 | 9.579 | 89.9 |
| 2026-06-04T02:50 | -11.49937 | -33.55060 | 1.963 | 84.0 |
| 2026-06-04T03:00 | -11.49955 | -33.55047 | 0.081 | 142.9 |
| 2026-06-04T03:10 | -11.49952 | -33.55044 | 0.012 | 47.0 |
| 2026-06-04T03:20 | -11.49954 | -33.55046 | 0.009 | 234.1 |
| 2026-06-04T03:30 | -11.49952 | -33.55044 | 0.010 | 58.3 |
| 2026-06-04T03:40 | -11.49953 | -33.55043 | 0.003 | 97.2 |
| 2026-06-04T03:50 | -11.49954 | -33.55045 | 0.007 | 235.1 |
| 2026-06-04T04:00 | -11.49954 | -33.55046 | 0.004 | 270.0 |
| 2026-06-04T04:10 | -11.49953 | -33.55044 | 0.007 | 53.4 |
| 2026-06-04T04:20 | -11.49953 | -33.55044 | 0.001 | 104.2 |
| 2026-06-04T04:30 | -11.49954 | -33.55045 | 0.007 | 226.7 |
| 2026-06-04T04:40 | -11.49953 | -33.55044 | 0.007 | 42.5 |
| 2026-06-04T04:50 | -11.49953 | -33.55045 | 0.005 | 262.3 |
| 2026-06-04T05:00 | -11.49953 | -33.55045 | 0.004 | 128.3 |
| 2026-06-04T05:10 | -11.49954 | -33.55046 | 0.007 | 246.9 |
| 2026-06-04T05:20 | -11.49954 | -33.55044 | 0.007 | 75.8 |
| 2026-06-04T05:30 | -11.49953 | -33.55045 | 0.003 | 352.0 |
| 2026-06-04T05:40 | -11.49953 | -33.55045 | 0.002 | 224.6 |
| 2026-06-04T05:50 | -11.49953 | -33.55045 | 0.002 | 21.5 |
| 2026-06-04T06:00 | -11.49953 | -33.55044 | 0.002 | 121.3 |
| 2026-06-04T06:10 | -11.49767 | -33.54554 | 1.855 | 68.9 |
| 2026-06-04T06:20 | -11.49818 | -33.52244 | 8.164 | 91.3 |
| 2026-06-04T06:30 | -11.49999 | -33.49428 | 9.968 | 93.7 |
| 2026-06-04T06:40 | -11.49999 | -33.46578 | 10.069 | 90.0 |
| 2026-06-04T06:50 | -11.49997 | -33.43686 | 10.217 | 90.0 |
| 2026-06-04T07:00 | -11.50000 | -33.40832 | 10.079 | 90.1 |
| 2026-06-04T07:10 | -11.49999 | -33.37947 | 10.192 | 90.0 |
| 2026-06-04T07:20 | -11.49998 | -33.35071 | 10.159 | 90.0 |
| 2026-06-04T07:30 | -11.49999 | -33.32173 | 10.237 | 90.0 |
| 2026-06-04T07:40 | -11.49997 | -33.29673 | 8.834 | 90.0 |
| 2026-06-04T07:50 | -11.49999 | -33.26876 | 9.880 | 90.0 |
| 2026-06-04T08:00 | -11.49999 | -33.23991 | 10.193 | 90.0 |
| 2026-06-04T08:10 | -11.49589 | -33.22049 | 7.013 | 77.9 |
| 2026-06-04T08:20 | -11.49970 | -33.21743 | 1.743 | 141.6 |
| 2026-06-04T08:30 | -11.49980 | -33.21700 | 0.155 | 102.8 |
| 2026-06-04T08:40 | -11.49979 | -33.21698 | 0.006 | 55.9 |
| 2026-06-04T08:50 | -11.49977 | -33.21696 | 0.011 | 51.0 |
| 2026-06-04T09:00 | -11.49978 | -33.21698 | 0.008 | 243.1 |
| 2026-06-04T09:10 | -11.49978 | -33.21696 | 0.008 | 87.5 |
| 2026-06-04T09:20 | -11.49978 | -33.21697 | 0.005 | 265.5 |
| 2026-06-04T09:30 | -11.49978 | -33.21697 | 0.002 | 158.5 |
| 2026-06-04T09:40 | -11.49978 | -33.21700 | 0.011 | 275.8 |
| 2026-06-04T09:50 | -11.49979 | -33.21699 | 0.006 | 135.4 |
| 2026-06-04T10:00 | -11.49978 | -33.21699 | 0.005 | 352.0 |
| 2026-06-04T10:10 | -11.49978 | -33.21699 | 0.002 | 238.3 |
| 2026-06-04T10:20 | -11.49978 | -33.21699 | 0.000 | 243.1 |
| 2026-06-04T10:30 | -11.49977 | -33.21698 | 0.006 | 61.6 |
| 2026-06-04T10:40 | -11.49978 | -33.21701 | 0.011 | 247.9 |
| 2026-06-04T10:50 | -11.49978 | -33.21699 | 0.007 | 80.9 |
| 2026-06-04T11:00 | -11.49978 | -33.21697 | 0.006 | 79.2 |
| 2026-06-04T11:10 | -11.49981 | -33.21821 | 0.439 | 268.5 |
| 2026-06-04T11:20 | -11.49777 | -33.21673 | 0.901 | 35.6 |
| 2026-06-04T11:30 | -11.48555 | -33.19716 | 8.181 | 57.7 |
| 2026-06-04T11:40 | -11.46871 | -33.17437 | 10.060 | 53.1 |
| 2026-06-04T11:50 | -11.45085 | -33.15017 | 10.680 | 53.2 |
| 2026-06-04T12:00 | -11.43294 | -33.12594 | 10.698 | 53.2 |
| 2026-06-04T12:10 | -11.41526 | -33.10201 | 10.564 | 53.2 |
| 2026-06-04T12:20 | -11.39774 | -33.07827 | 10.476 | 53.2 |
| 2026-06-04T12:30 | -11.38017 | -33.05448 | 10.502 | 53.2 |
| 2026-06-04T12:40 | -11.36269 | -33.03081 | 10.452 | 53.2 |
| 2026-06-04T12:50 | -11.34510 | -33.00702 | 10.505 | 53.2 |
| 2026-06-04T13:00 | -11.32773 | -32.98353 | 10.375 | 53.1 |
| 2026-06-04T13:10 | -11.31025 | -32.95985 | 10.454 | 53.2 |
| 2026-06-04T13:20 | -11.29266 | -32.93606 | 10.508 | 53.1 |
| 2026-06-04T13:30 | -11.27523 | -32.91248 | 10.414 | 53.2 |
| 2026-06-04T13:40 | -11.25790 | -32.88901 | 10.365 | 53.2 |
| 2026-06-04T13:50 | -11.24059 | -32.86559 | 10.344 | 53.2 |
| 2026-06-04T14:00 | -11.22314 | -32.84199 | 10.427 | 53.2 |
| 2026-06-04T14:10 | -11.20605 | -32.81891 | 10.200 | 53.1 |
| 2026-06-04T14:20 | -11.18848 | -32.79510 | 10.515 | 53.2 |
| 2026-06-04T14:30 | -11.17075 | -32.77112 | 10.591 | 53.2 |
| 2026-06-04T14:40 | -11.15303 | -32.74717 | 10.586 | 53.2 |
| 2026-06-04T14:50 | -11.13572 | -32.72377 | 10.343 | 53.2 |
| 2026-06-04T15:00 | -11.11847 | -32.70042 | 10.313 | 53.2 |
| 2026-06-04T15:10 | -11.10101 | -32.67680 | 10.438 | 53.2 |
| 2026-06-04T15:20 | -11.08359 | -32.65324 | 10.408 | 53.2 |
| 2026-06-04T15:30 | -11.06608 | -32.62955 | 10.469 | 53.2 |
| 2026-06-04T15:40 | -11.04858 | -32.60596 | 10.437 | 53.1 |
| 2026-06-04T15:50 | -11.03118 | -32.58242 | 10.403 | 53.2 |
| 2026-06-04T16:00 | -11.01383 | -32.55893 | 10.379 | 53.2 |
| 2026-06-04T16:10 | -10.99623 | -32.53517 | 10.510 | 53.1 |
| 2026-06-04T16:20 | -10.97866 | -32.51141 | 10.501 | 53.2 |
| 2026-06-04T16:30 | -10.96112 | -32.48769 | 10.487 | 53.2 |
| 2026-06-04T16:40 | -10.94339 | -32.46372 | 10.595 | 53.2 |
| 2026-06-04T16:50 | -10.92557 | -32.43965 | 10.646 | 53.2 |
| 2026-06-04T17:00 | -10.90766 | -32.41544 | 10.704 | 53.2 |
| 2026-06-04T17:10 | -10.88961 | -32.39104 | 10.787 | 53.2 |
| 2026-06-04T17:20 | -10.87126 | -32.36637 | 10.933 | 53.0 |
| 2026-06-04T17:30 | -10.85303 | -32.34193 | 10.838 | 53.0 |
| 2026-06-04T17:40 | -10.83502 | -32.31778 | 10.713 | 53.0 |
| 2026-06-04T17:50 | -10.81734 | -32.29409 | 10.508 | 53.0 |
| 2026-06-04T18:00 | -10.79983 | -32.27059 | 10.421 | 53.0 |
| 2026-06-04T18:10 | -10.78236 | -32.24715 | 10.395 | 53.0 |
| 2026-06-04T18:20 | -10.76472 | -32.22347 | 10.498 | 53.0 |
| 2026-06-04T18:30 | -10.74714 | -32.19990 | 10.456 | 53.0 |
| 2026-06-04T18:40 | -10.72980 | -32.17662 | 10.323 | 53.0 |
| 2026-06-04T18:50 | -10.71252 | -32.15345 | 10.279 | 53.0 |
| 2026-06-04T19:00 | -10.69552 | -32.13067 | 10.108 | 53.0 |
| 2026-06-04T19:10 | -10.67838 | -32.10767 | 10.203 | 53.0 |
| 2026-06-04T19:20 | -10.66129 | -32.08476 | 10.166 | 53.0 |
| 2026-06-04T19:30 | -10.64461 | -32.06230 | 9.949 | 53.1 |
| 2026-06-04T19:40 | -10.62726 | -32.03910 | 10.302 | 52.9 |
| 2026-06-04T19:50 | -10.61013 | -32.01610 | 10.203 | 53.0 |
| 2026-06-04T20:00 | -10.59290 | -31.99302 | 10.242 | 53.0 |
| 2026-06-04T20:10 | -10.57568 | -31.96996 | 10.240 | 53.0 |
| 2026-06-04T20:20 | -10.55854 | -31.94694 | 10.209 | 53.0 |
| 2026-06-04T20:30 | -10.54148 | -31.92405 | 10.155 | 53.0 |
| 2026-06-04T20:40 | -10.52433 | -31.90109 | 10.197 | 53.0 |
| 2026-06-04T20:50 | -10.50712 | -31.87803 | 10.238 | 53.0 |
| 2026-06-04T21:00 | -10.48983 | -31.85471 | 10.324 | 53.2 |
| 2026-06-04T21:10 | -10.47249 | -31.83132 | 10.361 | 53.2 |
| 2026-06-04T21:20 | -10.45512 | -31.80779 | 10.405 | 53.3 |
| 2026-06-04T21:30 | -10.43760 | -31.78417 | 10.465 | 53.2 |
| 2026-06-04T21:40 | -10.42012 | -31.76057 | 10.450 | 53.2 |
| 2026-06-04T21:50 | -10.40236 | -31.73666 | 10.597 | 53.1 |
| 2026-06-04T22:00 | -10.38492 | -31.71311 | 10.428 | 53.2 |
| 2026-06-04T22:10 | -10.36759 | -31.68965 | 10.381 | 53.3 |
| 2026-06-04T22:20 | -10.35028 | -31.66630 | 10.344 | 53.2 |
| 2026-06-04T22:30 | -10.33304 | -31.64306 | 10.299 | 53.1 |
| 2026-06-04T22:40 | -10.31585 | -31.61982 | 10.286 | 53.2 |
| 2026-06-04T22:50 | -10.29864 | -31.59660 | 10.289 | 53.2 |
| 2026-06-04T23:00 | -10.28135 | -31.57329 | 10.328 | 53.2 |
| 2026-06-04T23:10 | -10.26396 | -31.54979 | 10.406 | 53.2 |
| 2026-06-04T23:20 | -10.24680 | -31.52662 | 10.265 | 53.2 |
| 2026-06-04T23:30 | -10.22948 | -31.50328 | 10.345 | 53.2 |
| 2026-06-04T23:40 | -10.21229 | -31.48008 | 10.279 | 53.2 |
| 2026-06-04T23:50 | -10.19494 | -31.45665 | 10.378 | 53.2 |
| 2026-06-05T00:00 | -10.17740 | -31.43304 | 10.470 | 53.1 |
| 2026-06-05T00:10 | -10.15991 | -31.40940 | 10.469 | 53.2 |
| 2026-06-05T00:20 | -10.14233 | -31.38573 | 10.498 | 53.2 |
| 2026-06-05T00:30 | -10.12491 | -31.36221 | 10.420 | 53.2 |
| 2026-06-05T00:40 | -10.10743 | -31.33862 | 10.453 | 53.2 |
| 2026-06-05T00:50 | -10.08995 | -31.31505 | 10.449 | 53.2 |
| 2026-06-05T01:00 | -10.07227 | -31.29118 | 10.576 | 53.2 |
| 2026-06-05T01:10 | -10.05454 | -31.26734 | 10.579 | 53.1 |
| 2026-06-05T01:20 | -10.03695 | -31.24357 | 10.532 | 53.3 |
| 2026-06-05T01:30 | -10.01945 | -31.22000 | 10.454 | 53.1 |
| 2026-06-05T01:40 | -10.00206 | -31.19655 | 10.395 | 53.2 |
| 2026-06-05T01:50 | -9.98475 | -31.17320 | 10.353 | 53.2 |
| 2026-06-05T02:00 | -9.96783 | -31.15040 | 10.112 | 53.2 |
| 2026-06-05T02:10 | -9.95073 | -31.12732 | 10.228 | 53.2 |
| 2026-06-05T02:20 | -9.93392 | -31.10466 | 10.051 | 53.2 |
| 2026-06-05T02:30 | -9.91712 | -31.08204 | 10.037 | 53.2 |
| 2026-06-05T02:40 | -9.90035 | -31.05940 | 10.034 | 53.2 |
| 2026-06-05T02:50 | -9.88340 | -31.03660 | 10.121 | 53.1 |
| 2026-06-05T03:00 | -9.86648 | -31.01378 | 10.119 | 53.2 |
| 2026-06-05T03:10 | -9.84942 | -30.99078 | 10.203 | 53.2 |
| 2026-06-05T03:20 | -9.83252 | -30.96802 | 10.098 | 53.2 |
| 2026-06-05T03:30 | -9.81538 | -30.94488 | 10.258 | 53.2 |
| 2026-06-05T03:40 | -9.79800 | -30.92150 | 10.378 | 53.2 |
| 2026-06-05T03:50 | -9.78067 | -30.89817 | 10.352 | 53.2 |
| 2026-06-05T04:00 | -9.76343 | -30.87491 | 10.317 | 53.2 |
| 2026-06-05T04:10 | -9.74624 | -30.85172 | 10.287 | 53.2 |
| 2026-06-05T04:20 | -9.72915 | -30.82874 | 10.202 | 53.1 |
| 2026-06-05T04:30 | -9.71205 | -30.80573 | 10.217 | 53.2 |
| 2026-06-05T04:40 | -9.69505 | -30.78279 | 10.174 | 53.2 |
| 2026-06-05T04:50 | -9.67785 | -30.75962 | 10.280 | 53.2 |
| 2026-06-05T05:00 | -9.66085 | -30.73673 | 10.159 | 53.2 |
| 2026-06-05T05:10 | -9.64385 | -30.71387 | 10.155 | 53.1 |
| 2026-06-05T05:20 | -9.62687 | -30.69098 | 10.158 | 53.2 |
| 2026-06-05T05:30 | -9.60982 | -30.66801 | 10.195 | 53.2 |
| 2026-06-05T05:40 | -9.59256 | -30.64476 | 10.320 | 53.2 |
| 2026-06-05T05:50 | -9.57555 | -30.62188 | 10.161 | 53.2 |
| 2026-06-05T06:00 | -9.55846 | -30.59886 | 10.220 | 53.2 |
| 2026-06-05T06:10 | -9.54110 | -30.57548 | 10.378 | 53.2 |
| 2026-06-05T06:20 | -9.52390 | -30.55232 | 10.283 | 53.2 |
| 2026-06-05T06:30 | -9.50655 | -30.52895 | 10.375 | 53.2 |
| 2026-06-05T06:40 | -9.48911 | -30.50547 | 10.427 | 53.2 |
| 2026-06-05T06:50 | -9.47172 | -30.48208 | 10.390 | 53.2 |
| 2026-06-05T07:00 | -9.45430 | -30.45863 | 10.412 | 53.2 |
| 2026-06-05T07:10 | -9.43700 | -30.43532 | 10.350 | 53.2 |
| 2026-06-05T07:20 | -9.41967 | -30.41199 | 10.362 | 53.2 |
| 2026-06-05T07:30 | -9.40258 | -30.38899 | 10.214 | 53.2 |
| 2026-06-05T07:40 | -9.38557 | -30.36611 | 10.165 | 53.2 |
| 2026-06-05T07:50 | -9.36864 | -30.34334 | 10.116 | 53.2 |
| 2026-06-05T08:00 | -9.35180 | -30.32067 | 10.071 | 53.2 |
| 2026-06-05T08:10 | -9.33460 | -30.29752 | 10.283 | 53.2 |
| 2026-06-05T08:20 | -9.31736 | -30.27432 | 10.306 | 53.2 |
| 2026-06-05T08:30 | -9.30037 | -30.25147 | 10.156 | 53.2 |
| 2026-06-05T08:40 | -9.28337 | -30.22857 | 10.170 | 53.2 |
| 2026-06-05T08:50 | -9.26613 | -30.20537 | 10.308 | 53.2 |
| 2026-06-05T09:00 | -9.24859 | -30.18180 | 10.476 | 53.2 |
| 2026-06-05T09:10 | -9.23094 | -30.15806 | 10.549 | 53.2 |
| 2026-06-05T09:20 | -9.21332 | -30.13437 | 10.531 | 53.2 |
| 2026-06-05T09:30 | -9.19569 | -30.11066 | 10.539 | 53.2 |
| 2026-06-05T09:40 | -9.17815 | -30.08707 | 10.484 | 53.2 |
| 2026-06-05T09:50 | -9.16075 | -30.06365 | 10.405 | 53.2 |
| 2026-06-05T10:00 | -9.14347 | -30.04040 | 10.334 | 53.2 |
| 2026-06-05T10:10 | -9.12602 | -30.01694 | 10.430 | 53.2 |
| 2026-06-05T10:20 | -9.10849 | -29.99339 | 10.471 | 53.2 |
| 2026-06-05T10:30 | -9.09076 | -29.96953 | 10.604 | 53.2 |
| 2026-06-05T10:40 | -9.07310 | -29.94578 | 10.558 | 53.2 |
| 2026-06-05T10:50 | -9.05529 | -29.92183 | 10.649 | 53.2 |
| 2026-06-05T11:00 | -9.03739 | -29.89776 | 10.700 | 53.2 |
| 2026-06-05T11:10 | -9.01937 | -29.87355 | 10.766 | 53.2 |
| 2026-06-05T11:20 | -9.00144 | -29.84945 | 10.718 | 53.2 |
| 2026-06-05T11:30 | -8.98345 | -29.82525 | 10.757 | 53.2 |
| 2026-06-05T11:40 | -8.96536 | -29.80095 | 10.811 | 53.2 |
| 2026-06-05T11:50 | -8.94739 | -29.77679 | 10.744 | 53.2 |
| 2026-06-05T12:00 | -8.92949 | -29.75272 | 10.704 | 53.2 |
| 2026-06-05T12:10 | -8.91144 | -29.72847 | 10.786 | 53.2 |
| 2026-06-05T12:20 | -8.89350 | -29.70437 | 10.720 | 53.2 |
| 2026-06-05T12:30 | -8.87560 | -29.68032 | 10.701 | 53.2 |
| 2026-06-05T12:40 | -8.85758 | -29.65609 | 10.776 | 53.2 |
| 2026-06-05T12:50 | -8.83949 | -29.63180 | 10.810 | 53.2 |
| 2026-06-05T13:00 | -8.82146 | -29.60755 | 10.784 | 53.2 |
| 2026-06-05T13:10 | -8.80345 | -29.58338 | 10.756 | 53.2 |
| 2026-06-05T13:20 | -8.78528 | -29.55893 | 10.874 | 53.2 |
| 2026-06-05T13:30 | -8.76696 | -29.53432 | 10.951 | 53.2 |
| 2026-06-05T13:40 | -8.74869 | -29.50980 | 10.913 | 53.2 |
| 2026-06-05T13:50 | -8.73041 | -29.48524 | 10.927 | 53.2 |
| 2026-06-05T14:00 | -8.71211 | -29.46067 | 10.935 | 53.2 |
| 2026-06-05T14:10 | -8.69392 | -29.43621 | 10.884 | 53.2 |
| 2026-06-05T14:20 | -8.67566 | -29.41171 | 10.906 | 53.2 |
| 2026-06-05T14:30 | -8.65751 | -29.38734 | 10.848 | 53.2 |
| 2026-06-05T14:40 | -8.63948 | -29.36312 | 10.779 | 53.2 |
| 2026-06-05T14:50 | -8.62137 | -29.33882 | 10.818 | 53.2 |
| 2026-06-05T15:00 | -8.60328 | -29.31448 | 10.828 | 53.2 |
| 2026-06-05T15:10 | -8.58514 | -29.29012 | 10.847 | 53.2 |
| 2026-06-05T15:20 | -8.56690 | -29.26564 | 10.897 | 53.2 |
| 2026-06-05T15:30 | -8.54880 | -29.24136 | 10.812 | 53.2 |
| 2026-06-05T15:40 | -8.53081 | -29.21720 | 10.759 | 53.2 |
| 2026-06-05T15:50 | -8.51259 | -29.19274 | 10.888 | 53.2 |
| 2026-06-05T16:00 | -8.49438 | -29.16830 | 10.885 | 53.2 |
| 2026-06-05T16:10 | -8.47621 | -29.14386 | 10.875 | 53.2 |
| 2026-06-05T16:20 | -8.45792 | -29.11937 | 10.917 | 53.1 |
| 2026-06-05T16:30 | -8.43974 | -29.09497 | 10.864 | 53.2 |
| 2026-06-05T16:40 | -8.42158 | -29.07055 | 10.869 | 53.2 |
| 2026-06-05T16:50 | -8.40336 | -29.04610 | 10.892 | 53.2 |
| 2026-06-05T17:00 | -8.38492 | -29.02138 | 11.012 | 53.2 |
| 2026-06-05T17:10 | -8.36648 | -28.99661 | 11.032 | 53.2 |
| 2026-06-05T17:20 | -8.34807 | -28.97189 | 11.007 | 53.2 |
| 2026-06-05T17:30 | -8.32967 | -28.94724 | 10.989 | 53.2 |
| 2026-06-05T17:40 | -8.31130 | -28.92257 | 10.986 | 53.2 |
| 2026-06-05T17:50 | -8.29295 | -28.89796 | 10.965 | 53.2 |
| 2026-06-05T18:00 | -8.27449 | -28.87317 | 11.040 | 53.2 |
| 2026-06-05T18:10 | -8.25592 | -28.84828 | 11.095 | 53.2 |
| 2026-06-05T18:20 | -8.23746 | -28.82352 | 11.031 | 53.2 |
| 2026-06-05T18:30 | -8.21923 | -28.79903 | 10.908 | 53.2 |
| 2026-06-05T18:40 | -8.20110 | -28.77476 | 10.822 | 53.1 |
| 2026-06-05T18:50 | -8.18309 | -28.75057 | 10.774 | 53.2 |
| 2026-06-05T19:00 | -8.16526 | -28.72666 | 10.658 | 53.2 |
| 2026-06-05T19:10 | -8.14755 | -28.70289 | 10.591 | 53.2 |
| 2026-06-05T19:20 | -8.12995 | -28.67928 | 10.519 | 53.2 |
| 2026-06-05T19:30 | -8.11231 | -28.65562 | 10.547 | 53.2 |
| 2026-06-05T19:40 | -8.09466 | -28.63198 | 10.541 | 53.2 |
| 2026-06-05T19:50 | -8.07688 | -28.60811 | 10.636 | 53.2 |
| 2026-06-05T20:00 | -8.05904 | -28.58421 | 10.657 | 53.2 |
| 2026-06-05T20:10 | -8.04122 | -28.56031 | 10.653 | 53.2 |
| 2026-06-05T20:20 | -8.02338 | -28.53637 | 10.669 | 53.2 |
| 2026-06-05T20:30 | -8.00540 | -28.51225 | 10.750 | 53.2 |
| 2026-06-05T20:40 | -7.98741 | -28.48815 | 10.749 | 53.2 |
| 2026-06-05T20:50 | -7.96937 | -28.46399 | 10.777 | 53.2 |
| 2026-06-05T21:00 | -7.95123 | -28.43966 | 10.845 | 53.2 |
| 2026-06-05T21:10 | -7.93330 | -28.41561 | 10.725 | 53.2 |
| 2026-06-05T21:20 | -7.91521 | -28.39137 | 10.808 | 53.2 |
| 2026-06-05T21:30 | -7.89715 | -28.36715 | 10.800 | 53.2 |
| 2026-06-05T21:40 | -7.87920 | -28.34311 | 10.726 | 53.2 |
| 2026-06-05T21:50 | -7.86129 | -28.31910 | 10.705 | 53.2 |
| 2026-06-05T22:00 | -7.84335 | -28.29505 | 10.724 | 53.2 |
| 2026-06-05T22:10 | -7.82545 | -28.27107 | 10.698 | 53.2 |
| 2026-06-05T22:20 | -7.80748 | -28.24696 | 10.749 | 53.2 |
| 2026-06-05T22:30 | -7.78931 | -28.22261 | 10.860 | 53.2 |
| 2026-06-05T22:40 | -7.77123 | -28.19839 | 10.806 | 53.2 |
| 2026-06-05T22:50 | -7.75309 | -28.17408 | 10.846 | 53.2 |
| 2026-06-05T23:00 | -7.73494 | -28.14976 | 10.847 | 53.2 |
| 2026-06-05T23:10 | -7.71697 | -28.12568 | 10.741 | 53.2 |
| 2026-06-05T23:20 | -7.69892 | -28.10151 | 10.788 | 53.2 |
| 2026-06-05T23:30 | -7.68091 | -28.07738 | 10.764 | 53.2 |
| 2026-06-05T23:40 | -7.66266 | -28.05291 | 10.916 | 53.2 |
| 2026-06-05T23:50 | -7.64436 | -28.02840 | 10.936 | 53.2 |
| 2026-06-06T00:00 | -7.62601 | -28.00384 | 10.963 | 53.2 |
| 2026-06-06T00:10 | -7.60771 | -27.97934 | 10.934 | 53.2 |
| 2026-06-06T00:20 | -7.58949 | -27.95491 | 10.899 | 53.2 |
| 2026-06-06T00:30 | -7.57136 | -27.93061 | 10.839 | 53.2 |
| 2026-06-06T00:40 | -7.55297 | -27.90602 | 10.985 | 53.1 |
| 2026-06-06T00:50 | -7.53451 | -27.88130 | 11.032 | 53.2 |
| 2026-06-06T01:00 | -7.51608 | -27.85661 | 11.017 | 53.2 |
| 2026-06-06T01:10 | -7.49778 | -27.83209 | 10.945 | 53.2 |
| 2026-06-06T01:20 | -7.47943 | -27.80752 | 10.966 | 53.2 |
| 2026-06-06T01:30 | -7.46103 | -27.78289 | 10.994 | 53.2 |
| 2026-06-06T01:40 | -7.44257 | -27.75816 | 11.039 | 53.2 |
| 2026-06-06T01:50 | -7.42396 | -27.73325 | 11.121 | 53.2 |
| 2026-06-06T02:00 | -7.40524 | -27.70819 | 11.189 | 53.2 |
| 2026-06-06T02:10 | -7.38665 | -27.68330 | 11.114 | 53.2 |
| 2026-06-06T02:20 | -7.36811 | -27.65848 | 11.080 | 53.2 |
| 2026-06-06T02:30 | -7.34975 | -27.63389 | 10.976 | 53.2 |
| 2026-06-06T02:40 | -7.33131 | -27.60924 | 11.014 | 53.2 |
| 2026-06-06T02:50 | -7.31298 | -27.58469 | 10.960 | 53.2 |
| 2026-06-06T03:00 | -7.29465 | -27.56018 | 10.948 | 53.2 |
| 2026-06-06T03:10 | -7.27648 | -27.53582 | 10.873 | 53.2 |
| 2026-06-06T03:20 | -7.25819 | -27.51132 | 10.939 | 53.2 |
| 2026-06-06T03:30 | -7.23990 | -27.48684 | 10.932 | 53.2 |
| 2026-06-06T03:40 | -7.22162 | -27.46240 | 10.921 | 53.2 |
| 2026-06-06T03:50 | -7.20345 | -27.43810 | 10.856 | 53.2 |
| 2026-06-06T04:00 | -7.18510 | -27.41351 | 10.976 | 53.2 |
| 2026-06-06T04:10 | -7.16685 | -27.38911 | 10.905 | 53.2 |
| 2026-06-06T04:20 | -7.14858 | -27.36466 | 10.919 | 53.2 |
| 2026-06-06T04:30 | -7.13023 | -27.34011 | 10.968 | 53.2 |
| 2026-06-06T04:40 | -7.11186 | -27.31555 | 10.977 | 53.2 |
| 2026-06-06T04:50 | -7.09355 | -27.29101 | 10.954 | 53.2 |
| 2026-06-06T05:00 | -7.07538 | -27.26672 | 10.856 | 53.2 |
| 2026-06-06T05:10 | -7.05711 | -27.24228 | 10.919 | 53.2 |
| 2026-06-06T05:20 | -7.03887 | -27.21790 | 10.896 | 53.2 |
| 2026-06-06T05:30 | -7.02052 | -27.19334 | 10.974 | 53.2 |
| 2026-06-06T05:40 | -7.00219 | -27.16882 | 10.955 | 53.2 |
| 2026-06-06T05:50 | -6.98391 | -27.14437 | 10.925 | 53.2 |
| 2026-06-06T06:00 | -6.96571 | -27.12005 | 10.875 | 53.2 |
| 2026-06-06T06:10 | -6.94739 | -27.09552 | 10.957 | 53.2 |
| 2026-06-06T06:20 | -6.92903 | -27.07097 | 10.971 | 53.2 |
| 2026-06-06T06:30 | -6.91080 | -27.04659 | 10.897 | 53.2 |
| 2026-06-06T06:40 | -6.89254 | -27.02217 | 10.914 | 53.2 |
| 2026-06-06T06:50 | -6.87431 | -26.99780 | 10.893 | 53.2 |
| 2026-06-06T07:00 | -6.85607 | -26.97340 | 10.907 | 53.2 |
| 2026-06-06T07:10 | -6.83796 | -26.94919 | 10.824 | 53.2 |
| 2026-06-06T07:20 | -6.81997 | -26.92514 | 10.749 | 53.2 |
| 2026-06-06T07:30 | -6.80194 | -26.90102 | 10.779 | 53.2 |
| 2026-06-06T07:40 | -6.78388 | -26.87685 | 10.804 | 53.2 |
| 2026-06-06T07:50 | -6.76583 | -26.85272 | 10.786 | 53.2 |
| 2026-06-06T08:00 | -6.74766 | -26.82845 | 10.854 | 53.2 |
| 2026-06-06T08:10 | -6.72950 | -26.80418 | 10.855 | 53.2 |
| 2026-06-06T08:20 | -6.71121 | -26.77973 | 10.931 | 53.2 |
| 2026-06-06T08:30 | -6.69296 | -26.75532 | 10.912 | 53.2 |
| 2026-06-06T08:40 | -6.67474 | -26.73098 | 10.883 | 53.2 |
| 2026-06-06T08:50 | -6.65635 | -26.70639 | 10.997 | 53.2 |
| 2026-06-06T09:00 | -6.63812 | -26.68203 | 10.895 | 53.2 |
| 2026-06-06T09:10 | -6.61993 | -26.65768 | 10.880 | 53.2 |
| 2026-06-06T09:20 | -6.60169 | -26.63331 | 10.901 | 53.2 |
| 2026-06-06T09:30 | -6.58350 | -26.60899 | 10.876 | 53.2 |
| 2026-06-06T09:40 | -6.56530 | -26.58469 | 10.873 | 53.2 |
| 2026-06-06T09:50 | -6.54704 | -26.56028 | 10.914 | 53.2 |
| 2026-06-06T10:00 | -6.52878 | -26.53589 | 10.910 | 53.2 |
| 2026-06-06T10:10 | -6.51070 | -26.51172 | 10.811 | 53.2 |
| 2026-06-06T10:20 | -6.49251 | -26.48741 | 10.874 | 53.2 |
| 2026-06-06T10:30 | -6.47439 | -26.46322 | 10.823 | 53.2 |
| 2026-06-06T10:40 | -6.45631 | -26.43904 | 10.811 | 53.2 |
| 2026-06-06T10:50 | -6.43822 | -26.41490 | 10.804 | 53.2 |
| 2026-06-06T11:00 | -6.42021 | -26.39082 | 10.770 | 53.2 |
| 2026-06-06T11:10 | -6.40210 | -26.36662 | 10.827 | 53.2 |
| 2026-06-06T11:20 | -6.38408 | -26.34255 | 10.769 | 53.2 |
| 2026-06-06T11:30 | -6.36598 | -26.31835 | 10.825 | 53.2 |
| 2026-06-06T11:40 | -6.34798 | -26.29433 | 10.753 | 53.2 |
| 2026-06-06T11:50 | -6.32997 | -26.27025 | 10.768 | 53.2 |
| 2026-06-06T12:00 | -6.31198 | -26.24623 | 10.751 | 53.2 |
| 2026-06-06T12:10 | -6.29411 | -26.22238 | 10.674 | 53.2 |
| 2026-06-06T12:20 | -6.27616 | -26.19842 | 10.725 | 53.2 |
| 2026-06-06T12:30 | -6.25836 | -26.17463 | 10.645 | 53.2 |
| 2026-06-06T12:40 | -6.24047 | -26.15074 | 10.693 | 53.2 |
| 2026-06-06T12:50 | -6.22264 | -26.12692 | 10.659 | 53.2 |
| 2026-06-06T13:00 | -6.20464 | -26.10288 | 10.758 | 53.2 |
| 2026-06-06T13:10 | -6.18649 | -26.07864 | 10.849 | 53.2 |
| 2026-06-06T13:20 | -6.16846 | -26.05455 | 10.780 | 53.2 |
| 2026-06-06T13:30 | -6.15038 | -26.03042 | 10.801 | 53.2 |
| 2026-06-06T13:40 | -6.13232 | -26.00629 | 10.801 | 53.2 |
| 2026-06-06T13:50 | -6.11425 | -25.98217 | 10.797 | 53.2 |
| 2026-06-06T14:00 | -6.09622 | -25.95808 | 10.782 | 53.2 |
| 2026-06-06T14:10 | -6.07815 | -25.93398 | 10.794 | 53.2 |
| 2026-06-06T14:20 | -6.06003 | -25.90978 | 10.833 | 53.2 |
| 2026-06-06T14:30 | -6.04190 | -25.88559 | 10.829 | 53.2 |
| 2026-06-06T14:40 | -6.02380 | -25.86142 | 10.823 | 53.2 |
| 2026-06-06T14:50 | -6.00574 | -25.83730 | 10.796 | 53.2 |
| 2026-06-06T15:00 | -5.98767 | -25.81318 | 10.802 | 53.2 |
| 2026-06-06T15:10 | -5.96961 | -25.78908 | 10.791 | 53.2 |
| 2026-06-06T15:20 | -5.95163 | -25.76508 | 10.747 | 53.2 |
| 2026-06-06T15:30 | -5.93365 | -25.74110 | 10.740 | 53.2 |
| 2026-06-06T15:40 | -5.91566 | -25.71708 | 10.755 | 53.2 |
| 2026-06-06T15:50 | -5.89771 | -25.69311 | 10.730 | 53.2 |
| 2026-06-06T16:00 | -5.87986 | -25.66927 | 10.674 | 53.2 |
| 2026-06-06T16:10 | -5.86181 | -25.64518 | 10.789 | 53.2 |
| 2026-06-06T16:20 | -5.84374 | -25.62111 | 10.786 | 53.1 |
| 2026-06-06T16:30 | -5.82566 | -25.59696 | 10.813 | 53.2 |
| 2026-06-06T16:40 | -5.80766 | -25.57292 | 10.764 | 53.2 |
| 2026-06-06T16:50 | -5.78972 | -25.54901 | 10.714 | 53.2 |
| 2026-06-06T17:00 | -5.77182 | -25.52512 | 10.701 | 53.2 |
| 2026-06-06T17:10 | -5.75460 | -25.50213 | 10.297 | 53.2 |
| 2026-06-06T17:20 | -5.73733 | -25.47910 | 10.318 | 53.2 |
| 2026-06-06T17:30 | -5.72007 | -25.45606 | 10.320 | 53.2 |
| 2026-06-06T17:40 | -5.70265 | -25.43281 | 10.415 | 53.2 |
| 2026-06-06T17:50 | -5.68510 | -25.40940 | 10.486 | 53.2 |
| 2026-06-06T18:00 | -5.66770 | -25.38618 | 10.402 | 53.2 |
| 2026-06-06T18:10 | -5.65001 | -25.36259 | 10.570 | 53.2 |
| 2026-06-06T18:20 | -5.63251 | -25.33922 | 10.466 | 53.2 |
| 2026-06-06T18:30 | -5.61503 | -25.31591 | 10.445 | 53.2 |
| 2026-06-06T18:40 | -5.59758 | -25.29263 | 10.432 | 53.2 |
| 2026-06-06T18:50 | -5.58013 | -25.26936 | 10.428 | 53.2 |
| 2026-06-06T19:00 | -5.56257 | -25.24595 | 10.489 | 53.2 |
| 2026-06-06T19:10 | -5.54497 | -25.22248 | 10.519 | 53.2 |
| 2026-06-06T19:20 | -5.52733 | -25.19893 | 10.547 | 53.2 |
| 2026-06-06T19:30 | -5.50973 | -25.17545 | 10.523 | 53.2 |
| 2026-06-06T19:40 | -5.49210 | -25.15194 | 10.537 | 53.2 |
| 2026-06-06T19:50 | -5.47439 | -25.12831 | 10.586 | 53.2 |
| 2026-06-06T20:00 | -5.45675 | -25.10477 | 10.550 | 53.2 |
| 2026-06-06T20:10 | -5.43899 | -25.08110 | 10.607 | 53.2 |
| 2026-06-06T20:20 | -5.42141 | -25.05767 | 10.504 | 53.2 |
| 2026-06-06T20:30 | -5.40392 | -25.03435 | 10.454 | 53.2 |
| 2026-06-06T20:40 | -5.38634 | -25.01092 | 10.505 | 53.2 |
| 2026-06-06T20:50 | -5.36855 | -24.98719 | 10.635 | 53.2 |
| 2026-06-06T21:00 | -5.35077 | -24.96345 | 10.634 | 53.2 |
| 2026-06-06T21:10 | -5.33305 | -24.93984 | 10.584 | 53.2 |
| 2026-06-06T21:20 | -5.31526 | -24.91611 | 10.637 | 53.2 |
| 2026-06-06T21:30 | -5.29742 | -24.89235 | 10.653 | 53.2 |
| 2026-06-06T21:40 | -5.27959 | -24.86857 | 10.660 | 53.2 |
| 2026-06-06T21:50 | -5.26187 | -24.84494 | 10.594 | 53.2 |
| 2026-06-06T22:00 | -5.24411 | -24.82128 | 10.608 | 53.2 |
| 2026-06-06T22:10 | -5.22632 | -24.79753 | 10.644 | 53.2 |
| 2026-06-06T22:20 | -5.20859 | -24.77391 | 10.592 | 53.2 |
| 2026-06-06T22:30 | -5.19090 | -24.75031 | 10.577 | 53.2 |
| 2026-06-06T22:40 | -5.17307 | -24.72657 | 10.650 | 53.2 |
| 2026-06-06T22:50 | -5.15544 | -24.70305 | 10.540 | 53.2 |
| 2026-06-06T23:00 | -5.13786 | -24.67963 | 10.504 | 53.2 |
| 2026-06-06T23:10 | -5.12035 | -24.65630 | 10.463 | 53.2 |
| 2026-06-06T23:20 | -5.10295 | -24.63311 | 10.400 | 53.2 |
| 2026-06-06T23:30 | -5.08550 | -24.60984 | 10.433 | 53.2 |
| 2026-06-06T23:40 | -5.06803 | -24.58653 | 10.451 | 53.2 |
| 2026-06-06T23:50 | -5.05043 | -24.56309 | 10.511 | 53.2 |
| 2026-06-07T00:00 | -5.03289 | -24.53972 | 10.481 | 53.2 |
| 2026-06-07T00:10 | -5.01544 | -24.51645 | 10.434 | 53.2 |
| 2026-06-07T00:20 | -4.99786 | -24.49303 | 10.506 | 53.2 |
| 2026-06-07T00:30 | -4.98019 | -24.46951 | 10.553 | 53.2 |
| 2026-06-07T00:40 | -4.96249 | -24.44589 | 10.590 | 53.2 |
| 2026-06-07T00:50 | -4.94480 | -24.42231 | 10.573 | 53.2 |
| 2026-06-07T01:00 | -4.92722 | -24.39889 | 10.505 | 53.2 |
| 2026-06-07T01:10 | -4.90977 | -24.37564 | 10.431 | 53.2 |
| 2026-06-07T01:20 | -4.89244 | -24.35255 | 10.356 | 53.2 |
| 2026-06-07T01:30 | -4.87507 | -24.32941 | 10.381 | 53.2 |
| 2026-06-07T01:40 | -4.85778 | -24.30637 | 10.334 | 53.2 |
| 2026-06-07T01:50 | -4.84061 | -24.28347 | 10.267 | 53.2 |
| 2026-06-07T02:00 | -4.82336 | -24.26054 | 10.295 | 53.1 |
| 2026-06-07T02:10 | -4.80598 | -24.23737 | 10.393 | 53.2 |
| 2026-06-07T02:20 | -4.78854 | -24.21414 | 10.422 | 53.2 |
| 2026-06-07T02:30 | -4.77119 | -24.19098 | 10.384 | 53.2 |
| 2026-06-07T02:40 | -4.75375 | -24.16777 | 10.417 | 53.2 |
| 2026-06-07T02:50 | -4.73625 | -24.14446 | 10.456 | 53.2 |
| 2026-06-07T03:00 | -4.71867 | -24.12104 | 10.508 | 53.2 |
| 2026-06-07T03:10 | -4.70109 | -24.09763 | 10.508 | 53.2 |
| 2026-06-07T03:20 | -4.68379 | -24.07413 | 10.467 | 53.7 |
| 2026-06-07T03:30 | -4.66672 | -24.05076 | 10.384 | 53.9 |
| 2026-06-07T03:40 | -4.64890 | -24.02812 | 10.338 | 51.9 |
| 2026-06-07T03:50 | -4.63138 | -24.00477 | 10.477 | 53.2 |
| 2026-06-07T04:00 | -4.61388 | -23.98148 | 10.452 | 53.2 |
| 2026-06-07T04:10 | -4.59637 | -23.95817 | 10.464 | 53.2 |
| 2026-06-07T04:20 | -4.57888 | -23.93485 | 10.460 | 53.2 |
| 2026-06-07T04:30 | -4.56129 | -23.91145 | 10.507 | 53.2 |
| 2026-06-07T04:40 | -4.54368 | -23.88796 | 10.533 | 53.2 |
| 2026-06-07T04:50 | -4.52605 | -23.86450 | 10.534 | 53.2 |
| 2026-06-07T05:00 | -4.50847 | -23.84109 | 10.505 | 53.2 |
| 2026-06-07T05:10 | -4.49086 | -23.81763 | 10.528 | 53.2 |
| 2026-06-07T05:20 | -4.47327 | -23.79422 | 10.510 | 53.2 |
| 2026-06-07T05:30 | -4.45573 | -23.77085 | 10.487 | 53.2 |
| 2026-06-07T05:40 | -4.43812 | -23.74742 | 10.519 | 53.2 |
| 2026-06-07T05:50 | -4.42067 | -23.72417 | 10.431 | 53.2 |
| 2026-06-07T06:00 | -4.40308 | -23.70075 | 10.515 | 53.2 |
| 2026-06-07T06:10 | -4.38540 | -23.67721 | 10.564 | 53.2 |
| 2026-06-07T06:20 | -4.36754 | -23.65343 | 10.677 | 53.2 |
| 2026-06-07T06:30 | -4.34970 | -23.62963 | 10.675 | 53.2 |
| 2026-06-07T06:40 | -4.33189 | -23.60594 | 10.639 | 53.2 |
| 2026-06-07T06:50 | -4.31416 | -23.58236 | 10.590 | 53.2 |
| 2026-06-07T07:00 | -4.29634 | -23.55859 | 10.663 | 53.2 |
| 2026-06-07T07:10 | -4.27860 | -23.53499 | 10.598 | 53.2 |
| 2026-06-07T07:20 | -4.26083 | -23.51135 | 10.614 | 53.2 |
| 2026-06-07T07:30 | -4.24309 | -23.48775 | 10.599 | 53.2 |
| 2026-06-07T07:40 | -4.22541 | -23.46422 | 10.566 | 53.2 |
| 2026-06-07T07:50 | -4.20770 | -23.44063 | 10.587 | 53.2 |
| 2026-06-07T08:00 | -4.18992 | -23.41698 | 10.622 | 53.2 |
| 2026-06-07T08:10 | -4.17205 | -23.39317 | 10.686 | 53.2 |
| 2026-06-07T08:20 | -4.15436 | -23.36963 | 10.572 | 53.2 |
| 2026-06-07T08:30 | -4.13672 | -23.34618 | 10.534 | 53.2 |
| 2026-06-07T08:40 | -4.11911 | -23.32272 | 10.530 | 53.2 |
| 2026-06-07T08:50 | -4.10707 | -23.30953 | 6.407 | 47.7 |
| 2026-06-07T09:00 | -4.10869 | -23.30848 | 0.691 | 146.7 |
| 2026-06-07T09:10 | -4.10863 | -23.30840 | 0.035 | 51.8 |
| 2026-06-07T09:20 | -4.10865 | -23.30839 | 0.008 | 160.6 |
| 2026-06-07T09:30 | -4.10871 | -23.30843 | 0.026 | 209.5 |
| 2026-06-07T09:40 | -4.11338 | -23.30245 | 2.725 | 127.9 |
| 2026-06-07T09:50 | -4.08989 | -23.29217 | 9.189 | 23.7 |
| 2026-06-07T10:00 | -4.06009 | -23.28410 | 11.058 | 15.2 |
| 2026-06-07T10:10 | -4.03025 | -23.27609 | 11.064 | 15.1 |
| 2026-06-07T10:20 | -4.00021 | -23.26935 | 11.027 | 12.7 |
| 2026-06-07T10:30 | -3.96980 | -23.26376 | 11.070 | 10.5 |
| 2026-06-07T10:40 | -3.93999 | -23.25572 | 11.059 | 15.2 |
| 2026-06-07T10:50 | -3.91053 | -23.24651 | 11.054 | 17.4 |
| 2026-06-07T11:00 | -3.88127 | -23.23738 | 10.982 | 17.4 |
| 2026-06-07T11:10 | -3.85193 | -23.22821 | 11.011 | 17.4 |
| 2026-06-07T11:20 | -3.82120 | -23.22603 | 11.030 | 4.1 |
| 2026-06-07T11:30 | -3.78966 | -23.22759 | 11.309 | 357.2 |
| 2026-06-07T11:40 | -3.75776 | -23.22919 | 11.434 | 357.1 |
| 2026-06-07T11:50 | -3.72582 | -23.23076 | 11.453 | 357.2 |
| 2026-06-07T12:00 | -3.69374 | -23.23235 | 11.497 | 357.2 |
| 2026-06-07T12:10 | -3.66171 | -23.23395 | 11.486 | 357.1 |
| 2026-06-07T12:20 | -3.62961 | -23.23553 | 11.505 | 357.1 |
| 2026-06-07T12:30 | -3.59753 | -23.23712 | 11.503 | 357.2 |
| 2026-06-07T12:40 | -3.56492 | -23.23874 | 11.691 | 357.1 |
| 2026-06-07T12:50 | -3.53253 | -23.24033 | 11.609 | 357.2 |
| 2026-06-07T13:00 | -3.50020 | -23.24194 | 11.593 | 357.1 |
| 2026-06-07T13:10 | -3.46815 | -23.24353 | 11.488 | 357.1 |
| 2026-06-07T13:20 | -3.43610 | -23.24512 | 11.490 | 357.1 |
| 2026-06-07T13:30 | -3.40431 | -23.24670 | 11.396 | 357.1 |
| 2026-06-07T13:40 | -3.37255 | -23.24827 | 11.387 | 357.2 |
| 2026-06-07T13:50 | -3.34092 | -23.24983 | 11.336 | 357.1 |
| 2026-06-07T14:00 | -3.30961 | -23.25138 | 11.224 | 357.1 |
| 2026-06-07T14:10 | -3.27835 | -23.25293 | 11.208 | 357.1 |
| 2026-06-07T14:20 | -3.24715 | -23.25448 | 11.187 | 357.1 |
| 2026-06-07T14:30 | -3.21593 | -23.25602 | 11.190 | 357.2 |
| 2026-06-07T14:40 | -3.18450 | -23.25758 | 11.266 | 357.1 |
| 2026-06-07T14:50 | -3.15329 | -23.25913 | 11.190 | 357.1 |
| 2026-06-07T15:00 | -3.12193 | -23.26067 | 11.242 | 357.2 |
| 2026-06-07T15:10 | -3.09014 | -23.26225 | 11.396 | 357.1 |
| 2026-06-07T15:20 | -3.05845 | -23.26383 | 11.359 | 357.1 |
| 2026-06-07T15:30 | -3.02679 | -23.26536 | 11.353 | 357.2 |
| 2026-06-07T15:40 | -2.99860 | -23.26940 | 10.194 | 351.8 |
| 2026-06-07T15:50 | -2.99990 | -23.26741 | 0.851 | 122.9 |
| 2026-06-07T16:00 | -2.99994 | -23.26748 | 0.028 | 235.6 |
| 2026-06-07T16:10 | -2.99994 | -23.26745 | 0.009 | 92.2 |
| 2026-06-07T16:20 | -2.99994 | -23.26745 | 0.001 | 0.0 |
| 2026-06-07T16:30 | -2.99994 | -23.26745 | 0.003 | 209.9 |
| 2026-06-07T16:40 | -2.99994 | -23.26745 | 0.004 | 53.3 |
| 2026-06-07T16:50 | -2.99994 | -23.26745 | 0.003 | 240.4 |
| 2026-06-07T17:00 | -2.99994 | -23.26745 | 0.001 | 206.7 |
| 2026-06-07T17:10 | -2.99996 | -23.26747 | 0.008 | 234.3 |
| 2026-06-07T17:20 | -3.00157 | -23.26959 | 0.956 | 232.8 |
| 2026-06-07T17:30 | -2.99886 | -23.27126 | 1.142 | 328.3 |
| 2026-06-07T17:40 | -2.98035 | -23.26846 | 6.702 | 8.6 |
| 2026-06-07T17:50 | -2.95562 | -23.27130 | 8.916 | 353.4 |
| 2026-06-07T18:00 | -2.92461 | -23.27050 | 11.107 | 1.5 |
| 2026-06-07T18:10 | -2.89275 | -23.27207 | 11.422 | 357.1 |
| 2026-06-07T18:20 | -2.86084 | -23.27367 | 11.436 | 357.1 |
| 2026-06-07T18:30 | -2.82869 | -23.27527 | 11.528 | 357.1 |
| 2026-06-07T18:40 | -2.79643 | -23.27689 | 11.563 | 357.1 |
| 2026-06-07T18:50 | -2.76436 | -23.27849 | 11.500 | 357.1 |
| 2026-06-07T19:00 | -2.73235 | -23.28010 | 11.475 | 357.1 |
| 2026-06-07T19:10 | -2.70067 | -23.28170 | 11.357 | 357.1 |
| 2026-06-07T19:20 | -2.66906 | -23.28326 | 11.332 | 357.2 |
| 2026-06-07T19:30 | -2.63777 | -23.28483 | 11.218 | 357.1 |
| 2026-06-07T19:40 | -2.60646 | -23.28638 | 11.224 | 357.1 |
| 2026-06-07T19:50 | -2.57499 | -23.28797 | 11.281 | 357.1 |
| 2026-06-07T20:00 | -2.54325 | -23.28956 | 11.381 | 357.1 |
| 2026-06-07T20:10 | -2.51112 | -23.29118 | 11.516 | 357.1 |
| 2026-06-07T20:20 | -2.47921 | -23.29276 | 11.441 | 357.1 |
| 2026-06-07T20:30 | -2.44707 | -23.29437 | 11.521 | 357.1 |
| 2026-06-07T20:40 | -2.41485 | -23.29598 | 11.552 | 357.1 |
| 2026-06-07T20:50 | -2.38260 | -23.29760 | 11.560 | 357.1 |
| 2026-06-07T21:00 | -2.35050 | -23.29919 | 11.508 | 357.1 |
| 2026-06-07T21:10 | -2.31882 | -23.30079 | 11.358 | 357.1 |
| 2026-06-07T21:20 | -2.28743 | -23.30234 | 11.253 | 357.1 |
| 2026-06-07T21:30 | -2.25640 | -23.30390 | 11.122 | 357.1 |
| 2026-06-07T21:40 | -2.22554 | -23.30542 | 11.066 | 357.1 |
| 2026-06-07T21:50 | -2.19440 | -23.30698 | 11.161 | 357.1 |
| 2026-06-07T22:00 | -2.16307 | -23.30857 | 11.232 | 357.1 |
| 2026-06-07T22:10 | -2.13162 | -23.31013 | 11.275 | 357.1 |
| 2026-06-07T22:20 | -2.10038 | -23.31171 | 11.202 | 357.1 |
| 2026-06-07T22:30 | -2.06912 | -23.31326 | 11.206 | 357.1 |
| 2026-06-07T22:40 | -2.03753 | -23.31484 | 11.322 | 357.1 |
| 2026-06-07T22:50 | -2.01153 | -23.31615 | 9.323 | 357.1 |
| 2026-06-07T23:00 | -1.99959 | -23.31814 | 4.332 | 350.5 |
| 2026-06-07T23:10 | -1.99998 | -23.31776 | 0.195 | 135.9 |
| 2026-06-07T23:20 | -1.99996 | -23.31772 | 0.015 | 58.7 |
| 2026-06-07T23:30 | -1.99998 | -23.31773 | 0.005 | 191.4 |
| 2026-06-07T23:40 | -1.99998 | -23.31773 | 0.001 | 314.8 |
| 2026-06-07T23:50 | -1.99998 | -23.31773 | 0.001 | 165.9 |
| 2026-06-08T00:00 | -1.99997 | -23.31772 | 0.005 | 30.4 |
| 2026-06-08T00:10 | -2.00027 | -23.31776 | 0.108 | 186.9 |
| 2026-06-08T00:20 | -1.99361 | -23.31722 | 2.390 | 4.7 |
| 2026-06-08T00:30 | -1.96465 | -23.32034 | 10.432 | 353.8 |
| 2026-06-08T00:40 | -1.93256 | -23.32359 | 11.546 | 354.2 |
| 2026-06-08T00:50 | -1.90075 | -23.32683 | 11.451 | 354.1 |
| 2026-06-08T01:00 | -1.86920 | -23.33003 | 11.355 | 354.2 |
| 2026-06-08T01:10 | -1.83726 | -23.33329 | 11.495 | 354.1 |
| 2026-06-08T01:20 | -1.80522 | -23.33655 | 11.532 | 354.2 |
| 2026-06-08T01:30 | -1.77291 | -23.33985 | 11.628 | 354.1 |
| 2026-06-08T01:40 | -1.74080 | -23.34314 | 11.557 | 354.1 |
| 2026-06-08T01:50 | -1.70877 | -23.34639 | 11.529 | 354.2 |
| 2026-06-08T02:00 | -1.67677 | -23.34964 | 11.518 | 354.2 |
| 2026-06-08T02:10 | -1.64479 | -23.35290 | 11.508 | 354.1 |
| 2026-06-08T02:20 | -1.61254 | -23.35619 | 11.608 | 354.1 |
| 2026-06-08T02:30 | -1.58041 | -23.35798 | 11.522 | 356.8 |
| 2026-06-08T02:40 | -1.54856 | -23.35712 | 11.407 | 1.6 |
| 2026-06-08T02:50 | -1.51699 | -23.35621 | 11.311 | 1.6 |
| 2026-06-08T03:00 | -1.48557 | -23.35535 | 11.252 | 1.6 |
| 2026-06-08T03:10 | -1.45395 | -23.35446 | 11.326 | 1.6 |
| 2026-06-08T03:20 | -1.42228 | -23.35355 | 11.343 | 1.6 |
| 2026-06-08T03:30 | -1.39066 | -23.35267 | 11.325 | 1.6 |
| 2026-06-08T03:40 | -1.35901 | -23.35179 | 11.339 | 1.6 |
| 2026-06-08T03:50 | -1.32706 | -23.35089 | 11.442 | 1.6 |
| 2026-06-08T04:00 | -1.29509 | -23.34999 | 11.453 | 1.6 |
| 2026-06-08T04:10 | -1.26316 | -23.34908 | 11.436 | 1.6 |
| 2026-06-08T04:20 | -1.23109 | -23.34819 | 11.486 | 1.6 |
| 2026-06-08T04:30 | -1.19874 | -23.34728 | 11.587 | 1.6 |
| 2026-06-08T04:40 | -1.16683 | -23.34640 | 11.430 | 1.6 |
| 2026-06-08T04:50 | -1.13498 | -23.34548 | 11.405 | 1.6 |
| 2026-06-08T05:00 | -1.10318 | -23.34460 | 11.391 | 1.6 |
| 2026-06-08T05:10 | -1.07116 | -23.34371 | 11.468 | 1.6 |
| 2026-06-08T05:20 | -1.03901 | -23.34281 | 11.518 | 1.6 |
| 2026-06-08T05:30 | -1.00692 | -23.34335 | 11.493 | 359.0 |
| 2026-06-08T05:40 | -1.00002 | -23.34150 | 2.557 | 15.1 |
| 2026-06-08T05:50 | -1.00034 | -23.34167 | 0.130 | 207.6 |
| 2026-06-08T06:00 | -1.00035 | -23.34167 | 0.004 | 208.8 |
| 2026-06-08T06:10 | -0.99996 | -23.34123 | 0.213 | 48.8 |
| 2026-06-08T06:20 | -0.99949 | -23.34000 | 0.474 | 69.2 |
| 2026-06-08T06:30 | -1.01251 | -23.33990 | 4.661 | 179.6 |
| 2026-06-08T06:40 | -0.98693 | -23.34634 | 9.450 | 345.8 |
| 2026-06-08T06:50 | -0.95452 | -23.34580 | 11.606 | 1.0 |
| 2026-06-08T07:00 | -0.92200 | -23.34499 | 11.645 | 1.4 |
| 2026-06-08T07:10 | -0.88943 | -23.34389 | 11.669 | 1.9 |
| 2026-06-08T07:20 | -0.85695 | -23.34278 | 11.634 | 1.9 |
| 2026-06-08T07:30 | -0.82487 | -23.34172 | 11.493 | 1.9 |
| 2026-06-08T07:40 | -0.79309 | -23.34061 | 11.384 | 2.0 |
| 2026-06-08T07:50 | -0.76168 | -23.33951 | 11.256 | 2.0 |
| 2026-06-08T08:00 | -0.73030 | -23.33842 | 11.240 | 2.0 |
| 2026-06-08T08:10 | -0.69854 | -23.33730 | 11.380 | 2.0 |
| 2026-06-08T08:20 | -0.66670 | -23.33620 | 11.405 | 2.0 |
| 2026-06-08T08:30 | -0.63501 | -23.33559 | 11.351 | 1.1 |
| 2026-06-08T08:40 | -0.60309 | -23.33507 | 11.428 | 0.9 |
| 2026-06-08T08:50 | -0.57181 | -23.33451 | 11.202 | 1.0 |
| 2026-06-08T09:00 | -0.54860 | -23.33411 | 8.310 | 1.0 |
| 2026-06-08T09:10 | -0.51669 | -23.33360 | 11.427 | 0.9 |
| 2026-06-08T09:20 | -0.49891 | -23.33458 | 6.376 | 356.8 |
| 2026-06-08T09:30 | -0.50077 | -23.33473 | 0.666 | 184.7 |
| 2026-06-08T09:40 | -0.50076 | -23.33480 | 0.024 | 276.8 |
| 2026-06-08T09:50 | -0.50020 | -23.33373 | 0.437 | 62.5 |
| 2026-06-08T10:00 | -0.49907 | -23.33327 | 0.436 | 22.1 |
| 2026-06-08T10:10 | -0.49864 | -23.33268 | 0.261 | 54.0 |
| 2026-06-08T10:20 | -0.48843 | -23.33286 | 3.657 | 359.0 |
| 2026-06-08T10:30 | -0.45749 | -23.33006 | 11.122 | 5.2 |
| 2026-06-08T10:40 | -0.42540 | -23.32761 | 11.523 | 4.4 |
| 2026-06-08T10:50 | -0.39301 | -23.32511 | 11.633 | 4.4 |
| 2026-06-08T11:00 | -0.36545 | -23.31082 | 11.131 | 27.6 |
| 2026-06-08T11:10 | -0.33802 | -23.29601 | 11.177 | 28.5 |
| 2026-06-08T11:20 | -0.31086 | -23.28133 | 11.073 | 28.6 |
| 2026-06-08T11:30 | -0.28357 | -23.26659 | 11.119 | 28.5 |
| 2026-06-08T11:40 | -0.25594 | -23.25164 | 11.265 | 28.6 |
| 2026-06-08T11:50 | -0.22865 | -23.23687 | 11.126 | 28.6 |
| 2026-06-08T12:00 | -0.20128 | -23.22210 | 11.154 | 28.5 |
| 2026-06-08T12:10 | -0.17382 | -23.20725 | 11.193 | 28.6 |
| 2026-06-08T12:20 | -0.14636 | -23.19241 | 11.192 | 28.5 |
| 2026-06-08T12:30 | -0.11914 | -23.17768 | 11.100 | 28.6 |
| 2026-06-08T12:40 | -0.09156 | -23.16280 | 11.235 | 28.5 |
| 2026-06-08T12:50 | -0.06400 | -23.14757 | 11.294 | 29.1 |
| 2026-06-08T13:00 | -0.03662 | -23.13193 | 11.309 | 29.9 |
| 2026-06-08T13:10 | -0.01071 | -23.11704 | 10.716 | 30.1 |
| 2026-06-08T13:20 | -0.00529 | -23.11616 | 1.966 | 9.3 |
| 2026-06-08T13:30 | -0.00521 | -23.11618 | 0.033 | 343.3 |
| 2026-06-08T13:40 | -0.00327 | -23.11601 | 0.695 | 5.2 |
| 2026-06-08T13:50 | -0.00294 | -23.11624 | 0.145 | 324.9 |
| 2026-06-08T14:00 | -0.00281 | -23.11633 | 0.056 | 323.7 |
| 2026-06-08T14:10 | -0.00203 | -23.11526 | 0.479 | 54.1 |
| 2026-06-08T14:20 | 0.00404 | -23.11134 | 2.593 | 33.0 |
| 2026-06-08T14:30 | 0.00611 | -23.10804 | 1.401 | 58.1 |
| 2026-06-08T14:40 | 0.00454 | -23.10707 | 0.660 | 148.2 |
| 2026-06-08T14:50 | 0.00454 | -23.10592 | 0.416 | 90.0 |
| 2026-06-08T15:00 | 0.00318 | -23.10324 | 1.081 | 116.8 |
| 2026-06-08T15:10 | 0.00196 | -23.10334 | 0.441 | 184.5 |
| 2026-06-08T15:20 | 0.00481 | -23.10373 | 1.031 | 352.2 |
| 2026-06-08T15:30 | 0.00735 | -23.10447 | 0.949 | 343.6 |
| 2026-06-08T15:40 | 0.00734 | -23.10284 | 0.587 | 90.5 |
| 2026-06-08T15:50 | 0.00660 | -23.10257 | 0.280 | 159.9 |
| 2026-06-08T16:00 | 0.00825 | -23.10176 | 0.661 | 26.5 |
| 2026-06-08T16:10 | 0.00925 | -23.10122 | 0.406 | 28.3 |
| 2026-06-08T16:20 | 0.00998 | -23.10026 | 0.434 | 53.2 |
| 2026-06-08T16:30 | 0.01053 | -23.09885 | 0.543 | 68.8 |
| 2026-06-08T16:40 | 0.01105 | -23.09748 | 0.528 | 69.4 |
| 2026-06-08T16:50 | 0.01111 | -23.09606 | 0.513 | 87.4 |
| 2026-06-08T17:00 | 0.01006 | -23.09498 | 0.541 | 134.2 |
| 2026-06-08T17:10 | 0.00846 | -23.09201 | 1.216 | 118.0 |
| 2026-06-08T17:20 | 0.00760 | -23.08934 | 1.009 | 107.7 |
| 2026-06-08T17:30 | 0.00741 | -23.08875 | 0.224 | 107.8 |
| 2026-06-08T17:40 | 0.00889 | -23.08815 | 0.571 | 22.1 |
| 2026-06-08T17:50 | 0.01055 | -23.08877 | 0.635 | 339.4 |
| 2026-06-08T18:00 | 0.01200 | -23.08893 | 0.523 | 353.7 |
| 2026-06-08T18:10 | 0.01332 | -23.08887 | 0.471 | 2.8 |
| 2026-06-08T18:20 | 0.01340 | -23.09020 | 0.480 | 273.6 |
| 2026-06-08T18:30 | 0.01341 | -23.09338 | 1.146 | 270.2 |
| 2026-06-08T18:40 | 0.01167 | -23.08153 | 4.315 | 98.3 |
| 2026-06-08T18:50 | 0.00992 | -23.06484 | 6.049 | 96.0 |
| 2026-06-08T19:00 | 0.00808 | -23.04801 | 6.102 | 96.2 |
| 2026-06-08T19:10 | 0.00631 | -23.03101 | 6.161 | 95.9 |
| 2026-06-08T19:20 | 0.00485 | -23.01363 | 6.285 | 94.8 |
| 2026-06-08T19:30 | 0.00409 | -22.99586 | 6.411 | 92.4 |
| 2026-06-08T19:40 | 0.00037 | -22.98196 | 5.187 | 104.9 |
| 2026-06-08T19:50 | -0.00156 | -22.98439 | 1.117 | 231.7 |
| 2026-06-08T20:00 | -0.00108 | -22.98758 | 1.164 | 278.6 |
| 2026-06-08T20:10 | -0.00083 | -22.98729 | 0.137 | 50.2 |
| 2026-06-08T20:20 | -0.00057 | -22.98746 | 0.112 | 326.7 |
| 2026-06-08T20:30 | -0.00026 | -22.98768 | 0.135 | 324.6 |
| 2026-06-08T20:40 | -0.00018 | -22.98773 | 0.035 | 327.1 |
| 2026-06-08T20:50 | -0.00003 | -22.98768 | 0.057 | 18.9 |
| 2026-06-08T21:00 | 0.00016 | -22.98758 | 0.077 | 27.6 |
| 2026-06-08T21:10 | 0.00030 | -22.98774 | 0.078 | 312.7 |
| 2026-06-08T21:20 | 0.00100 | -22.98806 | 0.276 | 335.1 |
| 2026-06-08T21:30 | 0.00164 | -22.98867 | 0.315 | 316.2 |
| 2026-06-08T21:40 | 0.00479 | -23.00473 | 5.897 | 281.0 |
| 2026-06-08T21:50 | 0.00255 | -23.03567 | 11.184 | 265.9 |
| 2026-06-08T22:00 | 0.00025 | -23.06870 | 11.933 | 266.0 |
| 2026-06-08T22:10 | -0.00209 | -23.10153 | 11.861 | 265.9 |
| 2026-06-08T22:20 | 0.00077 | -23.11406 | 4.633 | 282.8 |
| 2026-06-08T22:30 | 0.00072 | -23.11417 | 0.043 | 247.4 |
| 2026-06-08T22:40 | 0.00073 | -23.11427 | 0.034 | 270.6 |
| 2026-06-08T22:50 | 0.00072 | -23.11426 | 0.002 | 126.7 |
| 2026-06-08T23:00 | 0.00073 | -23.11427 | 0.003 | 326.1 |
| 2026-06-08T23:10 | 0.00072 | -23.11428 | 0.005 | 239.9 |
| 2026-06-08T23:20 | 0.00072 | -23.11426 | 0.006 | 82.9 |
| 2026-06-08T23:30 | 0.00072 | -23.11426 | 0.003 | 105.8 |
| 2026-06-08T23:40 | 0.00092 | -23.11489 | 0.237 | 287.1 |
| 2026-06-08T23:50 | 0.00136 | -23.11681 | 0.714 | 283.0 |
| 2026-06-09T00:00 | 0.00137 | -23.11771 | 0.323 | 270.3 |
| 2026-06-09T00:10 | 0.00140 | -23.11863 | 0.330 | 271.7 |
| 2026-06-09T00:20 | 0.00141 | -23.11950 | 0.314 | 270.9 |
| 2026-06-09T00:30 | 0.00142 | -23.12006 | 0.205 | 270.8 |
| 2026-06-09T00:40 | 0.00142 | -23.12102 | 0.346 | 270.2 |
| 2026-06-09T00:50 | 0.00142 | -23.12137 | 0.125 | 270.2 |
| 2026-06-09T01:00 | 0.00181 | -23.12066 | 0.291 | 61.9 |
| 2026-06-09T01:10 | 0.00351 | -23.12003 | 0.653 | 20.4 |
| 2026-06-09T01:20 | 0.00359 | -23.11884 | 0.429 | 86.5 |
| 2026-06-09T01:30 | 0.00761 | -23.09602 | 8.349 | 80.1 |
| 2026-06-09T01:40 | 0.00784 | -23.06645 | 10.661 | 89.6 |
| 2026-06-09T01:50 | 0.00724 | -23.03698 | 10.624 | 91.2 |
| 2026-06-09T02:00 | 0.00566 | -23.00775 | 10.549 | 93.1 |
| 2026-06-09T02:10 | 0.00541 | -22.99071 | 6.144 | 90.8 |
| 2026-06-09T02:20 | 0.00265 | -22.98843 | 1.287 | 140.3 |
| 2026-06-09T02:30 | 0.00217 | -22.98835 | 0.174 | 171.1 |
| 2026-06-09T02:40 | 0.00217 | -22.98834 | 0.005 | 61.9 |
| 2026-06-09T02:50 | 0.00219 | -22.98829 | 0.018 | 70.2 |
| 2026-06-09T03:00 | 0.00211 | -22.98825 | 0.033 | 148.9 |
| 2026-06-09T03:10 | 0.00211 | -22.98825 | 0.003 | 238.2 |
| 2026-06-09T03:20 | 0.00211 | -22.98825 | 0.001 | 45.2 |
| 2026-06-09T03:30 | 0.00202 | -22.98816 | 0.047 | 132.0 |
| 2026-06-09T03:40 | 0.00203 | -22.98814 | 0.006 | 68.3 |
| 2026-06-09T03:50 | 0.00195 | -22.98806 | 0.039 | 133.3 |
| 2026-06-09T04:00 | 0.00182 | -22.98791 | 0.072 | 131.0 |
| 2026-06-09T04:10 | 0.00183 | -22.98790 | 0.004 | 49.0 |
| 2026-06-09T04:20 | 0.00187 | -22.98778 | 0.048 | 69.5 |
| 2026-06-09T04:30 | 0.00169 | -22.98771 | 0.069 | 158.9 |
| 2026-06-09T04:40 | 0.00106 | -22.98701 | 0.339 | 132.4 |
| 2026-06-09T04:50 | -0.00429 | -22.99651 | 3.920 | 240.8 |
| 2026-06-09T05:00 | 0.00714 | -23.00801 | 5.827 | 314.6 |
| 2026-06-09T05:10 | 0.01774 | -23.01826 | 5.296 | 315.8 |
| 2026-06-09T05:20 | 0.02853 | -23.02860 | 5.369 | 316.0 |
| 2026-06-09T05:30 | 0.03802 | -23.03593 | 4.302 | 322.1 |
| 2026-06-09T05:40 | 0.03696 | -23.03652 | 0.435 | 209.1 |
| 2026-06-09T05:50 | 0.03560 | -23.03775 | 0.659 | 222.3 |
| 2026-06-09T06:00 | 0.03565 | -23.03768 | 0.032 | 53.0 |
| 2026-06-09T06:10 | 0.03565 | -23.03767 | 0.001 | 14.1 |
| 2026-06-09T06:20 | 0.03565 | -23.03767 | 0.001 | 104.0 |
| 2026-06-09T06:30 | 0.03566 | -23.03768 | 0.003 | 324.3 |
| 2026-06-09T06:40 | 0.03566 | -23.03767 | 0.001 | 123.5 |
| 2026-06-09T06:50 | 0.03564 | -23.03767 | 0.006 | 161.4 |
| 2026-06-09T07:00 | 0.03585 | -23.03810 | 0.173 | 295.6 |
| 2026-06-09T07:10 | 0.03500 | -23.04215 | 1.492 | 258.2 |
| 2026-06-09T07:20 | 0.03268 | -23.04646 | 1.761 | 241.9 |
| 2026-06-09T07:30 | 0.03056 | -23.05013 | 1.526 | 240.1 |
| 2026-06-09T07:40 | 0.02811 | -23.05398 | 1.638 | 237.7 |
| 2026-06-09T07:50 | 0.03614 | -23.06050 | 3.715 | 320.7 |
| 2026-06-09T08:00 | 0.04683 | -23.04397 | 7.083 | 57.3 |
| 2026-06-09T08:10 | 0.05890 | -23.02530 | 7.997 | 57.3 |
| 2026-06-09T08:20 | 0.06011 | -23.01010 | 5.497 | 85.5 |
| 2026-06-09T08:30 | 0.05505 | -23.01409 | 2.313 | 218.4 |
| 2026-06-09T08:40 | 0.05500 | -23.01447 | 0.141 | 263.6 |
| 2026-06-09T08:50 | 0.05481 | -23.01489 | 0.163 | 245.3 |
| 2026-06-09T09:00 | 0.05300 | -23.01808 | 1.322 | 240.6 |
| 2026-06-09T09:10 | 0.05114 | -23.02140 | 1.368 | 240.9 |
| 2026-06-09T09:20 | 0.04932 | -23.02469 | 1.355 | 241.2 |
| 2026-06-09T09:30 | 0.04749 | -23.02801 | 1.364 | 241.3 |
| 2026-06-09T09:40 | 0.04565 | -23.03131 | 1.361 | 241.0 |
| 2026-06-09T09:50 | 0.04378 | -23.03466 | 1.379 | 241.0 |
| 2026-06-09T10:00 | 0.04144 | -23.03884 | 1.726 | 240.9 |
| 2026-06-09T10:10 | 0.03907 | -23.04310 | 1.751 | 241.1 |
| 2026-06-09T10:20 | 0.03670 | -23.04734 | 1.748 | 241.0 |
| 2026-06-09T10:30 | 0.03434 | -23.05158 | 1.747 | 241.0 |
| 2026-06-09T10:40 | 0.03198 | -23.05582 | 1.748 | 241.1 |
| 2026-06-09T10:50 | 0.02960 | -23.06007 | 1.751 | 241.0 |
| 2026-06-09T11:00 | 0.02724 | -23.06431 | 1.747 | 241.0 |
| 2026-06-09T11:10 | 0.02488 | -23.06855 | 1.746 | 241.1 |
| 2026-06-09T11:20 | 0.02250 | -23.07279 | 1.751 | 240.9 |
| 2026-06-09T11:30 | 0.02013 | -23.07703 | 1.748 | 241.0 |
| 2026-06-09T11:40 | 0.01783 | -23.08121 | 1.715 | 241.2 |
| 2026-06-09T11:50 | 0.01572 | -23.08497 | 1.552 | 240.9 |
| 2026-06-09T12:00 | 0.01361 | -23.08873 | 1.555 | 240.9 |
| 2026-06-09T12:10 | 0.01150 | -23.09251 | 1.555 | 241.1 |
| 2026-06-09T12:20 | 0.00940 | -23.09629 | 1.555 | 241.0 |
| 2026-06-09T12:30 | 0.00731 | -23.10006 | 1.552 | 241.2 |
| 2026-06-09T12:40 | 0.00520 | -23.10383 | 1.554 | 240.9 |
| 2026-06-09T12:50 | 0.00309 | -23.10760 | 1.556 | 240.9 |
| 2026-06-09T13:00 | 0.00097 | -23.11136 | 1.554 | 240.9 |
| 2026-06-09T13:10 | -0.00112 | -23.11514 | 1.553 | 241.1 |
| 2026-06-09T13:20 | -0.00254 | -23.11752 | 0.996 | 239.4 |
| 2026-06-09T13:30 | -0.00548 | -23.11843 | 1.104 | 197.3 |
| 2026-06-09T13:40 | -0.00545 | -23.11231 | 2.205 | 89.7 |
| 2026-06-09T13:50 | -0.01285 | -23.12122 | 4.164 | 230.4 |
| 2026-06-09T14:00 | 0.01232 | -23.12663 | 9.222 | 347.8 |
| 2026-06-09T14:10 | 0.04239 | -23.11847 | 11.160 | 15.3 |
| 2026-06-09T14:20 | 0.07260 | -23.10969 | 11.269 | 16.3 |
| 2026-06-09T14:30 | 0.10302 | -23.10061 | 11.373 | 16.7 |
| 2026-06-09T14:40 | 0.13353 | -23.09156 | 11.401 | 16.6 |
| 2026-06-09T14:50 | 0.16336 | -23.08265 | 11.150 | 16.7 |
| 2026-06-09T15:00 | 0.19325 | -23.07376 | 11.172 | 16.7 |
| 2026-06-09T15:10 | 0.22249 | -23.06388 | 11.058 | 18.8 |
| 2026-06-09T15:20 | 0.25250 | -23.05610 | 11.103 | 14.6 |
| 2026-06-09T15:30 | 0.28257 | -23.04929 | 11.043 | 12.8 |
| 2026-06-09T15:40 | 0.31276 | -23.04244 | 11.089 | 12.9 |
| 2026-06-09T15:50 | 0.34311 | -23.03557 | 11.145 | 12.8 |
| 2026-06-09T16:00 | 0.37322 | -23.02876 | 11.058 | 12.8 |
| 2026-06-09T16:10 | 0.40286 | -23.02203 | 10.884 | 12.9 |
| 2026-06-09T16:20 | 0.43293 | -23.01522 | 11.042 | 12.8 |
| 2026-06-09T16:30 | 0.46310 | -23.00836 | 11.083 | 12.9 |
| 2026-06-09T16:40 | 0.49394 | -23.00320 | 11.196 | 9.6 |
| 2026-06-09T16:50 | 0.49909 | -23.00169 | 1.925 | 16.4 |
| 2026-06-09T17:00 | 0.49904 | -23.00178 | 0.037 | 239.6 |
| 2026-06-09T17:10 | 0.49904 | -23.00179 | 0.004 | 241.1 |
| 2026-06-09T17:20 | 0.49903 | -23.00178 | 0.004 | 111.7 |
| 2026-06-09T17:30 | 0.49733 | -23.00180 | 0.610 | 180.7 |
| 2026-06-09T17:40 | 0.49327 | -22.99108 | 4.129 | 110.6 |
| 2026-06-09T17:50 | 0.52508 | -22.99159 | 11.392 | 359.1 |
| 2026-06-09T18:00 | 0.55726 | -22.99219 | 11.523 | 358.9 |
| 2026-06-09T18:10 | 0.58960 | -22.99276 | 11.583 | 359.0 |
| 2026-06-09T18:20 | 0.62203 | -22.99332 | 11.610 | 359.0 |
| 2026-06-09T18:30 | 0.65478 | -22.99392 | 11.731 | 358.9 |
| 2026-06-09T18:40 | 0.68760 | -22.99446 | 11.751 | 359.1 |
| 2026-06-09T18:50 | 0.72055 | -22.99508 | 11.800 | 358.9 |
| 2026-06-09T19:00 | 0.75315 | -22.99564 | 11.674 | 359.0 |
| 2026-06-09T19:10 | 0.78531 | -22.99645 | 11.517 | 358.6 |
| 2026-06-09T19:20 | 0.81757 | -22.99705 | 11.554 | 358.9 |
| 2026-06-09T19:30 | 0.85019 | -22.99764 | 11.682 | 358.9 |
| 2026-06-09T19:40 | 0.88254 | -22.99819 | 11.583 | 359.0 |
| 2026-06-09T19:50 | 0.91478 | -22.99877 | 11.545 | 359.0 |
| 2026-06-09T20:00 | 0.94660 | -22.99933 | 11.394 | 359.0 |
| 2026-06-09T20:10 | 0.97829 | -22.99993 | 11.348 | 358.9 |
| 2026-06-09T20:20 | 1.00039 | -23.00261 | 7.973 | 353.1 |
| 2026-06-09T20:30 | 1.00018 | -23.00174 | 0.320 | 103.6 |
| 2026-06-09T20:40 | 1.00008 | -23.00177 | 0.036 | 192.2 |
| 2026-06-09T20:50 | 1.00013 | -23.00177 | 0.016 | 348.1 |
| 2026-06-09T21:00 | 1.00013 | -23.00177 | 0.003 | 49.6 |
| 2026-06-09T21:10 | 1.00012 | -23.00177 | 0.004 | 174.8 |
| 2026-06-09T21:20 | 1.00017 | -23.00174 | 0.021 | 24.9 |
| 2026-06-09T21:30 | 1.00012 | -23.00178 | 0.025 | 214.6 |
| 2026-06-09T21:40 | 1.00014 | -23.00176 | 0.010 | 37.9 |
| 2026-06-09T21:50 | 1.00015 | -23.00176 | 0.006 | 21.9 |
| 2026-06-09T22:00 | 1.00014 | -23.00176 | 0.005 | 187.6 |
| 2026-06-09T22:10 | 1.00012 | -23.00179 | 0.011 | 234.9 |
| 2026-06-09T22:20 | 1.00014 | -23.00177 | 0.009 | 41.8 |
| 2026-06-09T22:30 | 1.00013 | -23.00178 | 0.005 | 212.6 |
| 2026-06-09T22:40 | 1.00013 | -23.00178 | 0.000 | 0.0 |
| 2026-06-09T22:50 | 1.00013 | -23.00177 | 0.003 | 97.1 |
| 2026-06-09T23:00 | 1.00015 | -23.00177 | 0.009 | 343.6 |
| 2026-06-09T23:10 | 1.00000 | -23.00145 | 0.129 | 115.5 |
| 2026-06-09T23:20 | 1.01961 | -23.00007 | 7.041 | 4.1 |
| 2026-06-09T23:30 | 1.05068 | -23.00005 | 11.123 | 0.0 |
| 2026-06-09T23:40 | 1.08224 | -23.00002 | 11.300 | 0.1 |
| 2026-06-09T23:50 | 1.11380 | -23.00002 | 11.299 | 0.0 |
| 2026-06-10T00:00 | 1.14555 | -23.00002 | 11.370 | 0.0 |
| 2026-06-10T00:10 | 1.17756 | -23.00004 | 11.461 | 360.0 |
| 2026-06-10T00:20 | 1.20973 | -23.00002 | 11.518 | 0.0 |
| 2026-06-10T00:30 | 1.24192 | -23.00002 | 11.523 | 0.0 |
| 2026-06-10T00:40 | 1.27367 | -23.00003 | 11.371 | 360.0 |
| 2026-06-10T00:50 | 1.30518 | -23.00002 | 11.282 | 0.0 |
| 2026-06-10T01:00 | 1.33666 | -23.00002 | 11.271 | 360.0 |
| 2026-06-10T01:10 | 1.36830 | -23.00001 | 11.328 | 0.0 |
| 2026-06-10T01:20 | 1.39997 | -23.00004 | 11.339 | 359.9 |
| 2026-06-10T01:30 | 1.43207 | -23.00002 | 11.492 | 0.0 |
| 2026-06-10T01:40 | 1.46388 | -23.00003 | 11.388 | 360.0 |
| 2026-06-10T01:50 | 1.49550 | -23.00003 | 11.322 | 0.0 |
| 2026-06-10T02:00 | 1.52767 | -23.00001 | 11.519 | 0.0 |
| 2026-06-10T02:10 | 1.55958 | -23.00001 | 11.424 | 0.0 |
| 2026-06-10T02:20 | 1.59139 | -23.00001 | 11.389 | 360.0 |
| 2026-06-10T02:30 | 1.62341 | -23.00002 | 11.466 | 360.0 |
| 2026-06-10T02:40 | 1.65560 | -23.00003 | 11.526 | 360.0 |
| 2026-06-10T02:50 | 1.68791 | -23.00002 | 11.568 | 0.0 |
| 2026-06-10T03:00 | 1.72071 | -23.00001 | 11.743 | 0.0 |
| 2026-06-10T03:10 | 1.75344 | -23.00002 | 11.718 | 360.0 |
| 2026-06-10T03:20 | 1.78613 | -23.00003 | 11.705 | 360.0 |
| 2026-06-10T03:30 | 1.81931 | -23.00003 | 11.881 | 0.0 |
| 2026-06-10T03:40 | 1.85259 | -23.00003 | 11.916 | 360.0 |
| 2026-06-10T03:50 | 1.88573 | -23.00002 | 11.865 | 0.0 |
| 2026-06-10T04:00 | 1.91849 | -23.00003 | 11.729 | 360.0 |
| 2026-06-10T04:10 | 1.95096 | -23.00002 | 11.625 | 0.0 |
| 2026-06-10T04:20 | 1.98322 | -23.00002 | 11.553 | 0.0 |
| 2026-06-10T04:30 | 2.01213 | -23.00010 | 10.349 | 359.8 |
| 2026-06-10T04:40 | 2.01605 | -23.00002 | 1.404 | 1.3 |
| 2026-06-10T04:50 | 2.01600 | -23.00000 | 0.019 | 163.2 |
| 2026-06-10T05:00 | 2.01601 | -22.99999 | 0.006 | 45.2 |
| 2026-06-10T05:10 | 2.01600 | -22.99999 | 0.004 | 217.0 |
| 2026-06-10T05:20 | 2.01602 | -23.00000 | 0.006 | 328.9 |
| 2026-06-10T05:30 | 2.01601 | -23.00000 | 0.003 | 153.3 |
| 2026-06-10T05:40 | 2.01600 | -23.00000 | 0.003 | 212.2 |
| 2026-06-10T05:50 | 2.01604 | -22.99999 | 0.014 | 23.5 |
| 2026-06-10T06:00 | 2.01600 | -23.00002 | 0.019 | 213.6 |
| 2026-06-10T06:10 | 2.01599 | -23.00001 | 0.003 | 134.8 |
| 2026-06-10T06:20 | 2.01600 | -23.00001 | 0.006 | 18.5 |
| 2026-06-10T06:30 | 2.01600 | -23.00002 | 0.005 | 234.1 |
| 2026-06-10T06:40 | 2.01600 | -23.00001 | 0.003 | 35.7 |
| 2026-06-10T06:50 | 2.01599 | -23.00001 | 0.004 | 184.8 |
| 2026-06-10T07:00 | 2.01600 | -23.00001 | 0.002 | 59.2 |
| 2026-06-10T07:10 | 2.01600 | -23.00001 | 0.002 | 296.4 |
| 2026-06-10T07:20 | 2.01600 | -23.00001 | 0.003 | 77.5 |
| 2026-06-10T07:30 | 2.01600 | -23.00000 | 0.001 | 90.0 |
| 2026-06-10T07:40 | 2.01426 | -23.00193 | 0.933 | 228.2 |
| 2026-06-10T07:50 | 2.01278 | -23.00764 | 2.123 | 255.5 |
| 2026-06-10T08:00 | 2.01029 | -23.01269 | 2.026 | 243.9 |
| 2026-06-10T08:10 | 2.00886 | -23.01802 | 1.987 | 255.1 |
| 2026-06-10T08:20 | 2.00521 | -23.02144 | 1.796 | 223.3 |
| 2026-06-10T08:30 | 2.01408 | -23.00016 | 8.298 | 67.5 |
| 2026-06-10T08:40 | 2.02353 | -22.97684 | 9.056 | 68.1 |
| 2026-06-10T08:50 | 2.03299 | -22.95361 | 9.028 | 68.0 |
| 2026-06-10T09:00 | 2.04245 | -22.93029 | 9.057 | 68.0 |
| 2026-06-10T09:10 | 2.05215 | -22.90644 | 9.269 | 68.0 |
| 2026-06-10T09:20 | 2.06193 | -22.88250 | 9.309 | 67.9 |
| 2026-06-10T09:30 | 2.07255 | -22.85941 | 9.145 | 65.4 |
| 2026-06-10T09:40 | 2.07176 | -22.85495 | 1.629 | 100.0 |
| 2026-06-10T09:50 | 2.06990 | -22.85935 | 1.719 | 247.2 |
| 2026-06-10T10:00 | 2.06877 | -22.86397 | 1.713 | 256.4 |
| 2026-06-10T10:10 | 2.06739 | -22.86826 | 1.619 | 252.3 |
| 2026-06-10T10:20 | 2.06617 | -22.87324 | 1.849 | 256.2 |
| 2026-06-10T10:30 | 2.06428 | -22.87868 | 2.072 | 251.0 |
| 2026-06-10T10:40 | 2.06246 | -22.88458 | 2.223 | 252.9 |
| 2026-06-10T10:50 | 2.06251 | -22.89247 | 2.840 | 270.4 |
| 2026-06-10T11:00 | 2.06270 | -22.90070 | 2.966 | 271.3 |
| 2026-06-10T11:10 | 2.06524 | -22.90987 | 3.428 | 285.4 |
| 2026-06-10T11:20 | 2.06419 | -22.91670 | 2.488 | 261.2 |
| 2026-06-10T11:30 | 2.06109 | -22.91995 | 1.611 | 226.6 |
| 2026-06-10T11:40 | 2.05745 | -22.92638 | 2.660 | 240.6 |
| 2026-06-10T11:50 | 2.05365 | -22.93237 | 2.549 | 237.8 |
| 2026-06-10T12:00 | 2.05038 | -22.93696 | 2.026 | 234.7 |
| 2026-06-10T12:10 | 2.04687 | -22.94133 | 2.014 | 231.4 |
| 2026-06-10T12:20 | 2.04317 | -22.94582 | 2.091 | 230.7 |
| 2026-06-10T12:30 | 2.03973 | -22.95042 | 2.063 | 233.3 |
| 2026-06-10T12:40 | 2.03628 | -22.95493 | 2.040 | 232.8 |
| 2026-06-10T12:50 | 2.03288 | -22.95979 | 2.137 | 235.2 |
| 2026-06-10T13:00 | 2.02962 | -22.96454 | 2.067 | 235.7 |
| 2026-06-10T13:10 | 2.02642 | -22.96939 | 2.090 | 236.7 |
| 2026-06-10T13:20 | 2.02376 | -22.97471 | 2.141 | 243.6 |
| 2026-06-10T13:30 | 2.02103 | -22.98011 | 2.179 | 243.3 |
| 2026-06-10T13:40 | 2.01842 | -22.98530 | 2.089 | 243.5 |
| 2026-06-10T13:50 | 2.01559 | -22.99058 | 2.155 | 242.0 |
| 2026-06-10T14:00 | 2.01302 | -22.99587 | 2.115 | 244.2 |
| 2026-06-10T14:10 | 2.01033 | -23.00058 | 1.951 | 240.4 |
| 2026-06-10T14:20 | 2.01038 | -23.00059 | 0.018 | 345.1 |
| 2026-06-10T14:30 | 2.01036 | -23.00058 | 0.008 | 164.0 |
| 2026-06-10T14:40 | 2.01107 | -23.00052 | 0.256 | 4.6 |
| 2026-06-10T14:50 | 2.01218 | -23.00046 | 0.397 | 3.2 |
| 2026-06-10T15:00 | 2.01323 | -23.00042 | 0.380 | 2.5 |
| 2026-06-10T15:10 | 2.01433 | -23.00098 | 0.442 | 332.7 |
| 2026-06-10T15:20 | 2.03021 | -22.99817 | 5.775 | 10.1 |
| 2026-06-10T15:30 | 2.06219 | -23.00086 | 11.490 | 355.2 |
| 2026-06-10T15:40 | 2.09601 | -23.00141 | 12.112 | 359.1 |
| 2026-06-10T15:50 | 2.13010 | -23.00199 | 12.207 | 359.0 |
| 2026-06-10T16:00 | 2.16416 | -23.00259 | 12.195 | 359.0 |
| 2026-06-10T16:10 | 2.19835 | -23.00316 | 12.245 | 359.0 |
| 2026-06-10T16:20 | 2.23236 | -23.00374 | 12.178 | 359.0 |
| 2026-06-10T16:30 | 2.26658 | -23.00431 | 12.253 | 359.0 |
| 2026-06-10T16:40 | 2.30028 | -23.00489 | 12.069 | 359.0 |
| 2026-06-10T16:50 | 2.33389 | -23.00547 | 12.035 | 359.0 |
| 2026-06-10T17:00 | 2.36780 | -23.00605 | 12.142 | 359.0 |
| 2026-06-10T17:10 | 2.40169 | -23.00662 | 12.138 | 359.0 |
| 2026-06-10T17:20 | 2.43539 | -23.00720 | 12.067 | 359.0 |
| 2026-06-10T17:30 | 2.46929 | -23.00778 | 12.141 | 359.0 |
| 2026-06-10T17:40 | 2.50318 | -23.00836 | 12.134 | 359.0 |
| 2026-06-10T17:50 | 2.53688 | -23.00895 | 12.068 | 359.0 |
| 2026-06-10T18:00 | 2.57080 | -23.00953 | 12.149 | 359.0 |
| 2026-06-10T18:10 | 2.60472 | -23.01010 | 12.147 | 359.0 |
| 2026-06-10T18:20 | 2.63871 | -23.01068 | 12.172 | 359.0 |
| 2026-06-10T18:30 | 2.67261 | -23.01125 | 12.139 | 359.0 |
| 2026-06-10T18:40 | 2.70649 | -23.01183 | 12.131 | 359.0 |
| 2026-06-10T18:50 | 2.74072 | -23.01243 | 12.258 | 359.0 |
| 2026-06-10T19:00 | 2.77485 | -23.01300 | 12.224 | 359.0 |
| 2026-06-10T19:10 | 2.80904 | -23.01358 | 12.241 | 359.0 |
| 2026-06-10T19:20 | 2.84308 | -23.01418 | 12.192 | 359.0 |
| 2026-06-10T19:30 | 2.87703 | -23.01476 | 12.156 | 359.0 |
| 2026-06-10T19:40 | 2.91095 | -23.01534 | 12.146 | 359.0 |
| 2026-06-10T19:50 | 2.94487 | -23.01591 | 12.147 | 359.0 |
| 2026-06-10T20:00 | 2.97854 | -23.01648 | 12.060 | 359.0 |
| 2026-06-10T20:10 | 3.01218 | -23.01707 | 12.043 | 359.0 |
| 2026-06-10T20:20 | 3.04593 | -23.01765 | 12.088 | 359.0 |
| 2026-06-10T20:30 | 3.07992 | -23.01822 | 12.170 | 359.0 |
| 2026-06-10T20:40 | 3.11392 | -23.01882 | 12.179 | 359.0 |
| 2026-06-10T20:50 | 3.14799 | -23.01937 | 12.197 | 359.1 |
| 2026-06-10T21:00 | 3.18201 | -23.01998 | 12.186 | 359.0 |
| 2026-06-10T21:10 | 3.21594 | -23.02055 | 12.149 | 359.0 |
| 2026-06-10T21:20 | 3.25011 | -23.02113 | 12.237 | 359.0 |
| 2026-06-10T21:30 | 3.28422 | -23.02172 | 12.215 | 359.0 |
| 2026-06-10T21:40 | 3.31829 | -23.02231 | 12.199 | 359.0 |
| 2026-06-10T21:50 | 3.35270 | -23.02289 | 12.323 | 359.0 |
| 2026-06-10T22:00 | 3.38734 | -23.02347 | 12.403 | 359.0 |
| 2026-06-10T22:10 | 3.42219 | -23.02408 | 12.482 | 359.0 |
| 2026-06-10T22:20 | 3.45701 | -23.02467 | 12.469 | 359.0 |
| 2026-06-10T22:30 | 3.49107 | -23.02525 | 12.199 | 359.0 |
| 2026-06-10T22:40 | 3.52506 | -23.02584 | 12.172 | 359.0 |
| 2026-06-10T22:50 | 3.55857 | -23.02642 | 11.999 | 359.0 |
| 2026-06-10T23:00 | 3.59210 | -23.02699 | 12.005 | 359.0 |
| 2026-06-10T23:10 | 3.62523 | -23.02755 | 11.868 | 359.0 |
| 2026-06-10T23:20 | 3.65867 | -23.02811 | 11.974 | 359.0 |
| 2026-06-10T23:30 | 3.69203 | -23.02869 | 11.945 | 359.0 |
| 2026-06-10T23:40 | 3.72509 | -23.02926 | 11.840 | 359.0 |
| 2026-06-10T23:50 | 3.75822 | -23.02982 | 11.863 | 359.0 |
| 2026-06-11T00:00 | 3.79131 | -23.03039 | 11.853 | 359.0 |
| 2026-06-11T00:10 | 3.82436 | -23.03096 | 11.833 | 359.0 |
| 2026-06-11T00:20 | 3.85769 | -23.03152 | 11.936 | 359.0 |
| 2026-06-11T00:30 | 3.89095 | -23.03210 | 11.911 | 359.0 |
| 2026-06-11T00:40 | 3.92412 | -23.03268 | 11.879 | 359.0 |
| 2026-06-11T00:50 | 3.95701 | -23.03324 | 11.777 | 359.0 |
| 2026-06-11T01:00 | 3.98927 | -23.02907 | 11.648 | 7.4 |
| 2026-06-11T01:10 | 4.02051 | -23.01903 | 11.755 | 17.9 |
| 2026-06-11T01:20 | 4.04394 | -22.99637 | 11.695 | 44.2 |
| 2026-06-11T01:30 | 4.05677 | -22.98378 | 6.451 | 44.6 |
| 2026-06-11T01:40 | 4.06609 | -22.97446 | 4.729 | 45.1 |
| 2026-06-11T01:50 | 4.08254 | -22.97422 | 5.890 | 0.8 |
| 2026-06-11T02:00 | 4.11139 | -22.98769 | 11.412 | 334.9 |
| 2026-06-11T02:10 | 4.14093 | -23.00061 | 11.549 | 336.3 |
| 2026-06-11T02:20 | 4.17086 | -23.01300 | 11.607 | 337.4 |
| 2026-06-11T02:30 | 4.20336 | -23.01919 | 11.849 | 349.2 |
| 2026-06-11T02:40 | 4.23572 | -23.02546 | 11.805 | 349.0 |
| 2026-06-11T02:50 | 4.26830 | -23.03176 | 11.882 | 349.0 |
| 2026-06-11T03:00 | 4.30078 | -23.03789 | 11.836 | 349.3 |
| 2026-06-11T03:10 | 4.33398 | -23.03968 | 11.904 | 356.9 |
| 2026-06-11T03:20 | 4.36782 | -23.04027 | 12.119 | 359.0 |
| 2026-06-11T03:30 | 4.40160 | -23.04085 | 12.096 | 359.0 |
| 2026-06-11T03:40 | 4.43517 | -23.04141 | 12.023 | 359.0 |
| 2026-06-11T03:50 | 4.46818 | -23.04198 | 11.822 | 359.0 |
| 2026-06-11T04:00 | 4.50154 | -23.04257 | 11.945 | 359.0 |
| 2026-06-11T04:10 | 4.52986 | -23.03389 | 10.609 | 17.1 |
| 2026-06-11T04:20 | 4.56008 | -23.02706 | 11.098 | 12.8 |
| 2026-06-11T04:30 | 4.59400 | -23.02842 | 12.154 | 357.7 |
| 2026-06-11T04:40 | 4.62701 | -23.03357 | 11.963 | 351.1 |
| 2026-06-11T04:50 | 4.65936 | -23.03870 | 11.731 | 350.9 |
| 2026-06-11T05:00 | 4.69125 | -23.04379 | 11.563 | 350.9 |
| 2026-06-11T05:10 | 4.72327 | -23.04636 | 11.503 | 355.4 |
| 2026-06-11T05:20 | 4.75517 | -23.04690 | 11.424 | 359.0 |
| 2026-06-11T05:30 | 4.78761 | -23.04747 | 11.616 | 359.0 |
| 2026-06-11T05:40 | 4.81994 | -23.04801 | 11.579 | 359.0 |
| 2026-06-11T05:50 | 4.85250 | -23.04859 | 11.659 | 359.0 |
| 2026-06-11T06:00 | 4.88518 | -23.04913 | 11.705 | 359.1 |
| 2026-06-11T06:10 | 4.91744 | -23.04969 | 11.550 | 359.0 |
| 2026-06-11T06:20 | 4.94923 | -23.05022 | 11.385 | 359.1 |
| 2026-06-11T06:30 | 4.98060 | -23.05078 | 11.236 | 359.0 |
| 2026-06-11T06:40 | 5.01180 | -23.05130 | 11.173 | 359.0 |
| 2026-06-11T06:50 | 5.04306 | -23.05184 | 11.195 | 359.0 |
| 2026-06-11T07:00 | 5.07459 | -23.05238 | 11.291 | 359.0 |
| 2026-06-11T07:10 | 5.10610 | -23.05292 | 11.283 | 359.0 |
| 2026-06-11T07:20 | 5.13732 | -23.05346 | 11.184 | 359.0 |
| 2026-06-11T07:30 | 5.16914 | -23.05401 | 11.392 | 359.0 |
| 2026-06-11T07:40 | 5.20125 | -23.05455 | 11.502 | 359.0 |
| 2026-06-11T07:50 | 5.23344 | -23.05511 | 11.525 | 359.0 |
| 2026-06-11T08:00 | 5.26536 | -23.05564 | 11.433 | 359.0 |
| 2026-06-11T08:10 | 5.29712 | -23.05620 | 11.373 | 359.0 |
| 2026-06-11T08:20 | 5.32876 | -23.05674 | 11.332 | 359.0 |
| 2026-06-11T08:30 | 5.36015 | -23.05727 | 11.240 | 359.0 |
| 2026-06-11T08:40 | 5.39116 | -23.05779 | 11.106 | 359.0 |
| 2026-06-11T08:50 | 5.42242 | -23.05837 | 11.194 | 358.9 |
| 2026-06-11T09:00 | 5.45348 | -23.05889 | 11.126 | 359.0 |
| 2026-06-11T09:10 | 5.48451 | -23.05943 | 11.112 | 359.0 |
| 2026-06-11T09:20 | 5.51545 | -23.05995 | 11.081 | 359.0 |
| 2026-06-11T09:30 | 5.54623 | -23.06049 | 11.022 | 359.0 |
| 2026-06-11T09:40 | 5.57677 | -23.06102 | 10.936 | 359.0 |
| 2026-06-11T09:50 | 5.60742 | -23.06143 | 10.976 | 359.2 |
| 2026-06-11T10:00 | 5.63847 | -23.06206 | 11.121 | 358.9 |
| 2026-06-11T10:10 | 5.67011 | -23.06259 | 11.333 | 359.0 |
| 2026-06-11T10:20 | 5.70165 | -23.06315 | 11.295 | 359.0 |
| 2026-06-11T10:30 | 5.73377 | -23.06368 | 11.503 | 359.1 |
| 2026-06-11T10:40 | 5.76565 | -23.06423 | 11.418 | 359.0 |
| 2026-06-11T10:50 | 5.79712 | -23.06478 | 11.270 | 359.0 |
| 2026-06-11T11:00 | 5.82858 | -23.06532 | 11.269 | 359.0 |
| 2026-06-11T11:10 | 5.85998 | -23.06586 | 11.245 | 359.0 |
| 2026-06-11T11:20 | 5.89162 | -23.06641 | 11.330 | 359.0 |
| 2026-06-11T11:30 | 5.92349 | -23.06695 | 11.416 | 359.0 |
| 2026-06-11T11:40 | 5.95521 | -23.06751 | 11.358 | 359.0 |
| 2026-06-11T11:50 | 5.98721 | -23.06807 | 11.459 | 359.0 |
| 2026-06-11T12:00 | 6.01928 | -23.06860 | 11.488 | 359.1 |
| 2026-06-11T12:10 | 6.05183 | -23.06917 | 11.656 | 359.0 |
| 2026-06-11T12:20 | 6.08417 | -23.06971 | 11.583 | 359.0 |
| 2026-06-11T12:30 | 6.11715 | -23.07025 | 11.809 | 359.1 |
| 2026-06-11T12:40 | 6.14965 | -23.07084 | 11.641 | 358.9 |
| 2026-06-11T12:50 | 6.18241 | -23.07142 | 11.730 | 359.0 |
| 2026-06-11T13:00 | 6.21533 | -23.07196 | 11.792 | 359.1 |
| 2026-06-11T13:10 | 6.24856 | -23.07253 | 11.899 | 359.0 |
| 2026-06-11T13:20 | 6.28151 | -23.07311 | 11.800 | 359.0 |
| 2026-06-11T13:30 | 6.31478 | -23.07370 | 11.915 | 359.0 |
| 2026-06-11T13:40 | 6.34788 | -23.07426 | 11.856 | 359.0 |
| 2026-06-11T13:50 | 6.38118 | -23.07484 | 11.927 | 359.0 |
| 2026-06-11T14:00 | 6.41453 | -23.07613 | 11.952 | 357.8 |
| 2026-06-11T14:10 | 6.44774 | -23.07775 | 11.904 | 357.2 |
| 2026-06-11T14:20 | 6.48043 | -23.07939 | 11.719 | 357.1 |
| 2026-06-11T14:30 | 6.51297 | -23.08096 | 11.668 | 357.2 |
| 2026-06-11T14:40 | 6.54520 | -23.08256 | 11.556 | 357.2 |
| 2026-06-11T14:50 | 6.57810 | -23.08417 | 11.794 | 357.2 |
| 2026-06-11T15:00 | 6.61127 | -23.08580 | 11.893 | 357.2 |
| 2026-06-11T15:10 | 6.64486 | -23.08749 | 12.043 | 357.1 |
| 2026-06-11T15:20 | 6.67867 | -23.08908 | 12.120 | 357.3 |
| 2026-06-11T15:30 | 6.71225 | -23.09075 | 12.039 | 357.1 |
| 2026-06-11T15:40 | 6.74594 | -23.09240 | 12.078 | 357.2 |
| 2026-06-11T15:50 | 6.77958 | -23.09407 | 12.062 | 357.2 |
| 2026-06-11T16:00 | 6.81374 | -23.09575 | 12.246 | 357.2 |
| 2026-06-11T16:10 | 6.84840 | -23.09744 | 12.429 | 357.2 |
| 2026-06-11T16:20 | 6.88300 | -23.09915 | 12.403 | 357.2 |
| 2026-06-11T16:30 | 6.91729 | -23.10083 | 12.295 | 357.2 |
| 2026-06-11T16:40 | 6.95127 | -23.10249 | 12.183 | 357.2 |
| 2026-06-11T16:50 | 6.98542 | -23.10419 | 12.244 | 357.2 |
| 2026-06-11T17:00 | 7.01956 | -23.10588 | 12.238 | 357.2 |
| 2026-06-11T17:10 | 7.05390 | -23.10757 | 12.314 | 357.2 |
| 2026-06-11T17:20 | 7.08779 | -23.10921 | 12.150 | 357.2 |
| 2026-06-11T17:30 | 7.12168 | -23.11090 | 12.149 | 357.1 |
| 2026-06-11T17:40 | 7.15546 | -23.11255 | 12.113 | 357.2 |
| 2026-06-11T17:50 | 7.18934 | -23.11426 | 12.146 | 357.1 |
| 2026-06-11T18:00 | 7.22301 | -23.11587 | 12.072 | 357.3 |
| 2026-06-11T18:10 | 7.25603 | -23.11751 | 11.838 | 357.2 |
| 2026-06-11T18:20 | 7.28963 | -23.11916 | 12.047 | 357.2 |
| 2026-06-11T18:30 | 7.32324 | -23.12082 | 12.049 | 357.2 |
| 2026-06-11T18:40 | 7.35709 | -23.12246 | 12.136 | 357.2 |
| 2026-06-11T18:50 | 7.39071 | -23.12413 | 12.054 | 357.1 |
| 2026-06-11T19:00 | 7.42451 | -23.12473 | 12.106 | 359.0 |
| 2026-06-11T19:10 | 7.45842 | -23.12412 | 12.145 | 1.0 |
| 2026-06-11T19:20 | 7.49245 | -23.12354 | 12.187 | 1.0 |
| 2026-06-11T19:30 | 7.52598 | -23.12292 | 12.011 | 1.1 |
| 2026-06-11T19:40 | 7.55957 | -23.12234 | 12.030 | 1.0 |
| 2026-06-11T19:50 | 7.59317 | -23.12174 | 12.035 | 1.0 |
| 2026-06-11T20:00 | 7.62649 | -23.12115 | 11.934 | 1.0 |
| 2026-06-11T20:10 | 7.65976 | -23.12056 | 11.916 | 1.0 |
| 2026-06-11T20:20 | 7.69320 | -23.12001 | 11.975 | 0.9 |
| 2026-06-11T20:30 | 7.72645 | -23.11940 | 11.910 | 1.1 |
| 2026-06-11T20:40 | 7.75944 | -23.11878 | 11.814 | 1.1 |
| 2026-06-11T20:50 | 7.79274 | -23.11824 | 11.928 | 0.9 |
| 2026-06-11T21:00 | 7.82579 | -23.11761 | 11.837 | 1.1 |
| 2026-06-11T21:10 | 7.85921 | -23.11704 | 11.969 | 1.0 |
| 2026-06-11T21:20 | 7.89273 | -23.11644 | 12.008 | 1.0 |
| 2026-06-11T21:30 | 7.92639 | -23.11586 | 12.056 | 1.0 |
| 2026-06-11T21:40 | 7.95963 | -23.11528 | 11.903 | 1.0 |
| 2026-06-11T21:50 | 7.99268 | -23.11470 | 11.839 | 1.0 |
| 2026-06-11T22:00 | 8.02621 | -23.11408 | 12.008 | 1.1 |
| 2026-06-11T22:10 | 8.05983 | -23.11352 | 12.042 | 1.0 |
| 2026-06-11T22:20 | 8.09359 | -23.11292 | 12.092 | 1.0 |
| 2026-06-11T22:30 | 8.12715 | -23.11232 | 12.019 | 1.0 |
| 2026-06-11T22:40 | 8.16068 | -23.11171 | 12.009 | 1.1 |
| 2026-06-11T22:50 | 8.19420 | -23.11112 | 12.006 | 1.0 |
| 2026-06-11T23:00 | 8.22751 | -23.11053 | 11.932 | 1.0 |
| 2026-06-11T23:10 | 8.26132 | -23.10996 | 12.108 | 1.0 |
| 2026-06-11T23:20 | 8.29503 | -23.10938 | 12.075 | 1.0 |
| 2026-06-11T23:30 | 8.32842 | -23.10876 | 11.959 | 1.1 |
| 2026-06-11T23:40 | 8.36160 | -23.10816 | 11.885 | 1.0 |
| 2026-06-11T23:50 | 8.39455 | -23.10757 | 11.801 | 1.0 |
| 2026-06-12T00:00 | 8.42762 | -23.10699 | 11.847 | 1.0 |
| 2026-06-12T00:10 | 8.46112 | -23.10641 | 11.997 | 1.0 |
| 2026-06-12T00:20 | 8.49475 | -23.10583 | 12.045 | 1.0 |
| 2026-06-12T00:30 | 8.52819 | -23.10523 | 11.978 | 1.0 |
| 2026-06-12T00:40 | 8.56151 | -23.10465 | 11.934 | 1.0 |
| 2026-06-12T00:50 | 8.59412 | -23.10406 | 11.681 | 1.0 |
| 2026-06-12T01:00 | 8.62684 | -23.10348 | 11.718 | 1.0 |
| 2026-06-12T01:10 | 8.65963 | -23.10289 | 11.747 | 1.0 |
| 2026-06-12T01:20 | 8.69205 | -23.10234 | 11.610 | 1.0 |
| 2026-06-12T01:30 | 8.72452 | -23.10174 | 11.628 | 1.1 |
| 2026-06-12T01:40 | 8.75709 | -23.10118 | 11.667 | 1.0 |
| 2026-06-12T01:50 | 8.78967 | -23.10059 | 11.671 | 1.0 |
| 2026-06-12T02:00 | 8.82270 | -23.10000 | 11.829 | 1.0 |
| 2026-06-12T02:10 | 8.85593 | -23.09944 | 11.902 | 1.0 |
| 2026-06-12T02:20 | 8.88926 | -23.09883 | 11.939 | 1.1 |
| 2026-06-12T02:30 | 8.92245 | -23.09825 | 11.888 | 1.0 |
| 2026-06-12T02:40 | 8.95584 | -23.09765 | 11.959 | 1.0 |
| 2026-06-12T02:50 | 8.98920 | -23.09707 | 11.947 | 1.0 |
| 2026-06-12T03:00 | 9.02219 | -23.09647 | 11.816 | 1.0 |
| 2026-06-12T03:10 | 9.05502 | -23.09589 | 11.760 | 1.0 |
| 2026-06-12T03:20 | 9.08797 | -23.09532 | 11.802 | 1.0 |
| 2026-06-12T03:30 | 9.12079 | -23.09473 | 11.756 | 1.0 |
| 2026-06-12T03:40 | 9.15356 | -23.09415 | 11.737 | 1.0 |
| 2026-06-12T03:50 | 9.18617 | -23.09358 | 11.680 | 1.0 |
| 2026-06-12T04:00 | 9.21947 | -23.09299 | 11.930 | 1.0 |
| 2026-06-12T04:10 | 9.25267 | -23.09240 | 11.891 | 1.0 |
| 2026-06-12T04:20 | 9.28555 | -23.09183 | 11.777 | 1.0 |
| 2026-06-12T04:30 | 9.31828 | -23.09005 | 11.739 | 3.1 |
| 2026-06-12T04:40 | 9.35114 | -23.08798 | 11.790 | 3.6 |
| 2026-06-12T04:50 | 9.38383 | -23.08597 | 11.727 | 3.5 |
| 2026-06-12T05:00 | 9.41572 | -23.08397 | 11.446 | 3.6 |
| 2026-06-12T05:10 | 9.44796 | -23.08196 | 11.565 | 3.5 |
| 2026-06-12T05:20 | 9.48028 | -23.07996 | 11.599 | 3.5 |
| 2026-06-12T05:30 | 9.51310 | -23.07788 | 11.777 | 3.6 |
Only the first 2000 rows were shown. To view the complete dataset, download it as tab-delimited text. You can still view the full matrix in your browser, but be aware that this may crash the browser due to the huge size.
